LSP133 YSSY-ZSPD
Flight info
| Callsign | LSP133 |
|---|---|
| Flight time | 10h 15m |
| Altitude | 32000 |
| Route | RIC H530 LASUD Q293 AKUMI/N0493F340 Q147 VOMPA Q499 NONUM DCT MEMIG A216 GALEE/N0491F360 A216 HOOVR DCT LADSS DCT PAKDO G339 SABGU/N0483F380 G339 AGIKA Z41 POTET A593 LAMEN/K0902F380 A593 AKARA/K0904S1160 A593 DUMET DUM81A |
| Aircraft | B77L/H-SDE1E2E3FGHIJ2J3J4J5M1RWXY/LB1D1 |
Departure
| Time | 2026-05-05 01:09 |
|---|---|
| Airport | Sydney Kingsford Smith International Airport (YSSY) |
Arrival
| Time | 2026-05-05 11:25 |
|---|---|
| Airport | Shanghai Pudong International Airport (ZSPD) |
| Time | Latitude | Longitude | Altitude | Speed | Heading |
|---|---|---|---|---|---|
| 2026-05-05 00:48 | -33.93252 | 151.16802 | 34 ft | 0 kts | 297° |
| 2026-05-05 00:53 | -33.93261 | 151.16824 | 55 ft | 4 kts | 294° |
| 2026-05-05 00:53 | -33.93272 | 151.16854 | 58 ft | 4 kts | 288° |
| 2026-05-05 00:53 | -33.93279 | 151.16885 | 34 ft | 4 kts | 278° |
| 2026-05-05 00:53 | -33.93279 | 151.16916 | 33 ft | 4 kts | 250° |
| 2026-05-05 00:54 | -33.93271 | 151.16933 | 33 ft | 0 kts | 207° |
| 2026-05-05 00:59 | -33.93302 | 151.16913 | 34 ft | 9 kts | 208° |
| 2026-05-05 00:59 | -33.93362 | 151.16889 | 34 ft | 9 kts | 183° |
| 2026-05-05 00:59 | -33.93426 | 151.16901 | 34 ft | 9 kts | 168° |
| 2026-05-05 00:59 | -33.93488 | 151.16922 | 34 ft | 9 kts | 149° |
| 2026-05-05 01:00 | -33.93510 | 151.16992 | 34 ft | 9 kts | 83° |
| 2026-05-05 01:00 | -33.93490 | 151.17067 | 34 ft | 9 kts | 63° |
| 2026-05-05 01:00 | -33.93450 | 151.17129 | 33 ft | 10 kts | 65° |
| 2026-05-05 01:00 | -33.93432 | 151.17207 | 32 ft | 10 kts | 78° |
| 2026-05-05 01:01 | -33.93417 | 151.17288 | 32 ft | 10 kts | 77° |
| 2026-05-05 01:01 | -33.93407 | 151.17338 | 32 ft | 10 kts | 77° |
| 2026-05-05 01:01 | -33.93400 | 151.17375 | 33 ft | 10 kts | 77° |
| 2026-05-05 01:01 | -33.93387 | 151.17457 | 34 ft | 10 kts | 79° |
| 2026-05-05 01:02 | -33.93433 | 151.17501 | 34 ft | 10 kts | 182° |
| 2026-05-05 01:02 | -33.93502 | 151.17507 | 34 ft | 10 kts | 168° |
| 2026-05-05 01:02 | -33.93572 | 151.17526 | 33 ft | 10 kts | 168° |
| 2026-05-05 01:02 | -33.93649 | 151.17545 | 33 ft | 12 kts | 168° |
| 2026-05-05 01:03 | -33.93739 | 151.17568 | 33 ft | 13 kts | 168° |
| 2026-05-05 01:03 | -33.93831 | 151.17591 | 33 ft | 13 kts | 168° |
| 2026-05-05 01:03 | -33.93864 | 151.17667 | 34 ft | 12 kts | 83° |
| 2026-05-05 01:03 | -33.93843 | 151.17763 | 34 ft | 12 kts | 73° |
| 2026-05-05 01:04 | -33.93820 | 151.17858 | 34 ft | 12 kts | 74° |
| 2026-05-05 01:04 | -33.93775 | 151.18048 | 35 ft | 12 kts | 74° |
| 2026-05-05 01:04 | -33.93752 | 151.18149 | 35 ft | 14 kts | 74° |
| 2026-05-05 01:05 | -33.93720 | 151.18287 | 35 ft | 19 kts | 74° |
| 2026-05-05 01:05 | -33.93683 | 151.18445 | 34 ft | 20 kts | 74° |
| 2026-05-05 01:05 | -33.93644 | 151.18605 | 34 ft | 20 kts | 74° |
| 2026-05-05 01:05 | -33.93607 | 151.18764 | 34 ft | 17 kts | 74° |
| 2026-05-05 01:06 | -33.93591 | 151.18861 | 34 ft | 11 kts | 95° |
| 2026-05-05 01:06 | -33.93632 | 151.18932 | 33 ft | 11 kts | 151° |
| 2026-05-05 01:06 | -33.93707 | 151.18957 | 30 ft | 12 kts | 174° |
| 2026-05-05 01:06 | -33.93772 | 151.18905 | 30 ft | 12 kts | 249° |
| 2026-05-05 01:07 | -33.93785 | 151.18852 | 30 ft | 0 kts | 253° |
| 2026-05-05 01:09 | -33.93833 | 151.18648 | 31 ft | 66 kts | 254° |
| 2026-05-05 01:09 | -33.94031 | 151.17813 | 33 ft | 142 kts | 254° |
| 2026-05-05 01:09 | -33.94361 | 151.16421 | 52 ft | 196 kts | 254° |
| 2026-05-05 01:09 | -33.94730 | 151.14862 | 797 ft | 190 kts | 254° |
| 2026-05-05 01:10 | -33.95080 | 151.13316 | 1510 ft | 194 kts | 256° |
| 2026-05-05 01:10 | -33.95420 | 151.11700 | 2039 ft | 210 kts | 255° |
| 2026-05-05 01:10 | -33.95809 | 151.09921 | 2504 ft | 223 kts | 255° |
| 2026-05-05 01:10 | -33.95954 | 151.08059 | 3151 ft | 234 kts | 280° |
| 2026-05-05 01:11 | -33.95099 | 151.06317 | 3645 ft | 257 kts | 317° |
| 2026-05-05 01:11 | -33.93554 | 151.05146 | 4217 ft | 267 kts | 326° |
| 2026-05-05 01:11 | -33.91943 | 151.03973 | 4977 ft | 272 kts | 325° |
| 2026-05-05 01:11 | -33.90346 | 151.02755 | 5864 ft | 271 kts | 324° |
| 2026-05-05 01:12 | -33.88761 | 151.01515 | 6726 ft | 272 kts | 324° |
| 2026-05-05 01:12 | -33.87196 | 151.00267 | 7503 ft | 274 kts | 324° |
| 2026-05-05 01:12 | -33.85612 | 150.98987 | 8336 ft | 274 kts | 323° |
| 2026-05-05 01:12 | -33.84021 | 150.97690 | 9126 ft | 277 kts | 323° |
| 2026-05-05 01:13 | -33.82424 | 150.96380 | 9890 ft | 279 kts | 323° |
| 2026-05-05 01:13 | -33.80807 | 150.95048 | 10530 ft | 286 kts | 322° |
| 2026-05-05 01:13 | -33.79102 | 150.93636 | 10727 ft | 310 kts | 323° |
| 2026-05-05 01:13 | -33.77258 | 150.92106 | 10910 ft | 334 kts | 323° |
| 2026-05-05 01:14 | -33.75279 | 150.90466 | 11175 ft | 354 kts | 323° |
| 2026-05-05 01:14 | -33.73218 | 150.88763 | 11782 ft | 363 kts | 323° |
| 2026-05-05 01:14 | -33.71144 | 150.87050 | 12526 ft | 368 kts | 323° |
| 2026-05-05 01:14 | -33.69025 | 150.85300 | 13387 ft | 370 kts | 323° |
| 2026-05-05 01:15 | -33.66898 | 150.83543 | 14209 ft | 372 kts | 322° |
| 2026-05-05 01:15 | -33.64744 | 150.81764 | 14903 ft | 377 kts | 323° |
| 2026-05-05 01:15 | -33.62563 | 150.79963 | 15549 ft | 382 kts | 323° |
| 2026-05-05 01:15 | -33.60367 | 150.78129 | 16190 ft | 387 kts | 321° |
| 2026-05-05 01:16 | -33.58316 | 150.76094 | 16833 ft | 389 kts | 314° |
| 2026-05-05 01:16 | -33.56372 | 150.73812 | 17473 ft | 394 kts | 313° |
| 2026-05-05 01:16 | -33.54391 | 150.71492 | 18068 ft | 400 kts | 314° |
| 2026-05-05 01:16 | -33.52386 | 150.69160 | 18692 ft | 403 kts | 314° |
| 2026-05-05 01:17 | -33.50372 | 150.66832 | 19433 ft | 402 kts | 314° |
| 2026-05-05 01:17 | -33.48355 | 150.64505 | 20127 ft | 402 kts | 314° |
| 2026-05-05 01:17 | -33.46334 | 150.62175 | 20777 ft | 404 kts | 314° |
| 2026-05-05 01:17 | -33.44305 | 150.59839 | 21412 ft | 406 kts | 314° |
| 2026-05-05 01:18 | -33.42260 | 150.57485 | 22043 ft | 408 kts | 314° |
| 2026-05-05 01:18 | -33.40206 | 150.55124 | 22661 ft | 410 kts | 313° |
| 2026-05-05 01:18 | -33.38144 | 150.52753 | 23289 ft | 412 kts | 314° |
| 2026-05-05 01:18 | -33.36073 | 150.50371 | 23896 ft | 414 kts | 313° |
| 2026-05-05 01:19 | -33.33999 | 150.47983 | 24457 ft | 414 kts | 313° |
| 2026-05-05 01:19 | -33.31924 | 150.45596 | 25032 ft | 414 kts | 313° |
| 2026-05-05 01:19 | -33.29875 | 150.43240 | 25559 ft | 414 kts | 313° |
| 2026-05-05 01:19 | -33.27794 | 150.40850 | 26103 ft | 415 kts | 313° |
| 2026-05-05 01:20 | -33.25716 | 150.38464 | 26641 ft | 415 kts | 313° |
| 2026-05-05 01:20 | -33.23632 | 150.36072 | 27171 ft | 416 kts | 313° |
| 2026-05-05 01:20 | -33.21538 | 150.33671 | 27682 ft | 416 kts | 314° |
| 2026-05-05 01:20 | -33.19444 | 150.31274 | 28280 ft | 413 kts | 313° |
| 2026-05-05 01:21 | -33.17387 | 150.28923 | 29040 ft | 408 kts | 314° |
| 2026-05-05 01:21 | -33.15339 | 150.26580 | 29558 ft | 408 kts | 314° |
| 2026-05-05 01:21 | -33.13289 | 150.24235 | 29977 ft | 410 kts | 314° |
| 2026-05-05 01:21 | -33.11225 | 150.21874 | 30356 ft | 412 kts | 314° |
| 2026-05-05 01:22 | -33.09153 | 150.19509 | 30663 ft | 413 kts | 314° |
| 2026-05-05 01:22 | -33.07074 | 150.17138 | 30933 ft | 415 kts | 314° |
| 2026-05-05 01:22 | -33.04979 | 150.14748 | 31088 ft | 419 kts | 314° |
| 2026-05-05 01:22 | -33.02865 | 150.12339 | 31350 ft | 420 kts | 314° |
| 2026-05-05 01:23 | -33.00758 | 150.09940 | 31743 ft | 418 kts | 314° |
| 2026-05-05 01:23 | -32.98685 | 150.07582 | 32101 ft | 417 kts | 314° |
| 2026-05-05 01:23 | -32.94453 | 150.02771 | 32187 ft | 420 kts | 314° |
| 2026-05-05 01:24 | -32.90249 | 149.98001 | 32184 ft | 415 kts | 314° |
| 2026-05-05 01:24 | -32.86068 | 149.93261 | 32174 ft | 414 kts | 314° |
| 2026-05-05 01:25 | -32.81908 | 149.88549 | 32176 ft | 411 kts | 314° |
| 2026-05-05 01:25 | -32.77786 | 149.83886 | 32193 ft | 410 kts | 314° |
| 2026-05-05 01:26 | -32.73646 | 149.79207 | 32200 ft | 411 kts | 314° |
| 2026-05-05 01:26 | -32.69502 | 149.74521 | 32197 ft | 412 kts | 314° |
| 2026-05-05 01:27 | -32.66048 | 149.70620 | 32197 ft | 412 kts | 314° |
| 2026-05-05 01:27 | -32.61889 | 149.65923 | 32201 ft | 413 kts | 314° |
| 2026-05-05 01:28 | -32.57722 | 149.61229 | 32192 ft | 414 kts | 314° |
| 2026-05-05 01:28 | -32.53858 | 149.56188 | 32197 ft | 413 kts | 307° |
| 2026-05-05 01:29 | -32.50274 | 149.50924 | 32196 ft | 412 kts | 308° |
| 2026-05-05 01:29 | -32.46640 | 149.45672 | 32196 ft | 412 kts | 308° |
| 2026-05-05 01:30 | -32.42998 | 149.40408 | 32194 ft | 412 kts | 308° |
| 2026-05-05 01:30 | -32.39382 | 149.35184 | 32189 ft | 412 kts | 308° |
| 2026-05-05 01:31 | -32.35750 | 149.29941 | 32191 ft | 412 kts | 308° |
| 2026-05-05 01:31 | -32.32122 | 149.24711 | 32197 ft | 411 kts | 308° |
| 2026-05-05 01:32 | -32.28490 | 149.19483 | 32201 ft | 411 kts | 308° |
| 2026-05-05 01:32 | -32.24864 | 149.14267 | 32193 ft | 411 kts | 308° |
| 2026-05-05 01:33 | -32.21233 | 149.09054 | 32199 ft | 410 kts | 308° |
| 2026-05-05 01:33 | -32.17598 | 149.03853 | 32197 ft | 411 kts | 308° |
| 2026-05-05 01:34 | -32.13954 | 148.98651 | 32175 ft | 411 kts | 309° |
| 2026-05-05 01:34 | -32.10332 | 148.93487 | 32196 ft | 410 kts | 309° |
| 2026-05-05 01:35 | -32.06007 | 148.89135 | 32199 ft | 414 kts | 325° |
| 2026-05-05 01:35 | -32.00765 | 148.86197 | 32194 ft | 424 kts | 338° |
| 2026-05-05 01:36 | -31.94952 | 148.84759 | 32199 ft | 428 kts | 342° |
| 2026-05-05 01:36 | -31.89107 | 148.83414 | 32201 ft | 428 kts | 341° |
| 2026-05-05 01:37 | -31.83302 | 148.82037 | 32198 ft | 428 kts | 341° |
| 2026-05-05 01:37 | -31.77436 | 148.80621 | 32203 ft | 427 kts | 341° |
| 2026-05-05 01:38 | -31.71615 | 148.79212 | 32198 ft | 427 kts | 341° |
| 2026-05-05 01:38 | -31.65837 | 148.77813 | 32199 ft | 426 kts | 341° |
| 2026-05-05 01:39 | -31.60026 | 148.76409 | 32181 ft | 426 kts | 341° |
| 2026-05-05 01:39 | -31.54234 | 148.75011 | 32199 ft | 424 kts | 341° |
| 2026-05-05 01:40 | -31.48455 | 148.73620 | 32199 ft | 423 kts | 341° |
| 2026-05-05 01:40 | -31.42683 | 148.72231 | 32196 ft | 423 kts | 341° |
| 2026-05-05 01:41 | -31.36958 | 148.70855 | 32195 ft | 422 kts | 341° |
| 2026-05-05 01:41 | -31.31209 | 148.69475 | 32183 ft | 421 kts | 342° |
| 2026-05-05 01:42 | -31.25473 | 148.68100 | 32192 ft | 421 kts | 342° |
| 2026-05-05 01:42 | -31.19733 | 148.66726 | 32187 ft | 421 kts | 342° |
| 2026-05-05 01:43 | -31.13999 | 148.65354 | 32189 ft | 421 kts | 342° |
| 2026-05-05 01:43 | -31.08248 | 148.63981 | 32178 ft | 421 kts | 343° |
| 2026-05-05 01:44 | -31.02500 | 148.62612 | 32188 ft | 422 kts | 343° |
| 2026-05-05 01:44 | -30.96756 | 148.61245 | 32184 ft | 424 kts | 343° |
| 2026-05-05 01:45 | -30.90968 | 148.59869 | 32185 ft | 425 kts | 343° |
| 2026-05-05 01:45 | -30.85163 | 148.58491 | 32149 ft | 425 kts | 343° |
| 2026-05-05 01:46 | -30.79339 | 148.57109 | 32173 ft | 428 kts | 344° |
| 2026-05-05 01:46 | -30.73467 | 148.55719 | 32183 ft | 431 kts | 344° |
| 2026-05-05 01:47 | -30.67604 | 148.54332 | 32180 ft | 434 kts | 344° |
| 2026-05-05 01:47 | -30.61668 | 148.52930 | 32177 ft | 435 kts | 344° |
| 2026-05-05 01:48 | -30.55722 | 148.51528 | 32170 ft | 436 kts | 344° |
| 2026-05-05 01:48 | -30.49781 | 148.50128 | 32175 ft | 435 kts | 344° |
| 2026-05-05 01:49 | -30.43837 | 148.48729 | 32170 ft | 435 kts | 344° |
| 2026-05-05 01:49 | -30.37944 | 148.47345 | 32175 ft | 434 kts | 344° |
| 2026-05-05 01:50 | -30.32027 | 148.45956 | 32155 ft | 433 kts | 343° |
| 2026-05-05 01:50 | -30.26109 | 148.44567 | 32166 ft | 433 kts | 343° |
| 2026-05-05 01:51 | -30.20190 | 148.43180 | 32170 ft | 433 kts | 343° |
| 2026-05-05 01:51 | -30.14311 | 148.41805 | 32164 ft | 434 kts | 343° |
| 2026-05-05 01:52 | -30.08387 | 148.40420 | 32164 ft | 434 kts | 343° |
| 2026-05-05 01:52 | -30.02460 | 148.39038 | 32158 ft | 434 kts | 342° |
| 2026-05-05 01:53 | -29.96567 | 148.37664 | 32162 ft | 435 kts | 342° |
| 2026-05-05 01:53 | -29.90624 | 148.36280 | 32164 ft | 435 kts | 342° |
| 2026-05-05 01:54 | -29.84665 | 148.34894 | 32158 ft | 436 kts | 342° |
| 2026-05-05 01:54 | -29.78751 | 148.33522 | 32158 ft | 436 kts | 342° |
| 2026-05-05 01:55 | -29.72798 | 148.32141 | 32162 ft | 436 kts | 342° |
| 2026-05-05 01:55 | -29.66848 | 148.30762 | 32160 ft | 435 kts | 342° |
| 2026-05-05 01:56 | -29.60904 | 148.29387 | 32145 ft | 435 kts | 342° |
| 2026-05-05 01:56 | -29.54967 | 148.28015 | 32124 ft | 435 kts | 342° |
| 2026-05-05 01:57 | -29.49058 | 148.26651 | 32145 ft | 435 kts | 341° |
| 2026-05-05 01:57 | -29.43117 | 148.25281 | 32153 ft | 436 kts | 341° |
| 2026-05-05 01:58 | -29.37164 | 148.23910 | 32154 ft | 437 kts | 341° |
| 2026-05-05 01:58 | -29.31229 | 148.22545 | 32151 ft | 437 kts | 341° |
| 2026-05-05 01:59 | -29.25254 | 148.21172 | 32151 ft | 438 kts | 341° |
| 2026-05-05 01:59 | -29.19283 | 148.19803 | 32143 ft | 438 kts | 341° |
| 2026-05-05 02:00 | -29.13329 | 148.18438 | 32145 ft | 436 kts | 341° |
| 2026-05-05 02:00 | -29.07391 | 148.17079 | 32144 ft | 434 kts | 341° |
| 2026-05-05 02:01 | -29.01475 | 148.15727 | 32131 ft | 433 kts | 341° |
| 2026-05-05 02:01 | -28.95575 | 148.14378 | 32154 ft | 433 kts | 341° |
| 2026-05-05 02:02 | -28.89703 | 148.13036 | 32153 ft | 434 kts | 341° |
| 2026-05-05 02:02 | -28.83771 | 148.11682 | 32156 ft | 435 kts | 341° |
| 2026-05-05 02:03 | -28.77827 | 148.10328 | 32150 ft | 436 kts | 341° |
| 2026-05-05 02:03 | -28.71905 | 148.08980 | 32146 ft | 436 kts | 341° |
| 2026-05-05 02:04 | -28.65960 | 148.07629 | 32153 ft | 436 kts | 341° |
| 2026-05-05 02:04 | -28.60008 | 148.06279 | 32152 ft | 436 kts | 341° |
| 2026-05-05 02:05 | -28.54056 | 148.04929 | 32159 ft | 436 kts | 341° |
| 2026-05-05 02:05 | -28.48094 | 148.03578 | 32136 ft | 437 kts | 341° |
| 2026-05-05 02:06 | -28.42161 | 148.02235 | 32144 ft | 437 kts | 341° |
| 2026-05-05 02:06 | -28.36187 | 148.00886 | 32157 ft | 437 kts | 341° |
| 2026-05-05 02:07 | -28.30213 | 147.99537 | 32159 ft | 437 kts | 341° |
| 2026-05-05 02:07 | -28.24241 | 147.98191 | 32158 ft | 437 kts | 341° |
| 2026-05-05 02:08 | -28.18262 | 147.96844 | 32153 ft | 438 kts | 342° |
| 2026-05-05 02:08 | -28.12313 | 147.95505 | 32161 ft | 439 kts | 342° |
| 2026-05-05 02:09 | -28.06296 | 147.94153 | 32158 ft | 440 kts | 342° |
| 2026-05-05 02:09 | -28.00282 | 147.92803 | 32158 ft | 441 kts | 342° |
| 2026-05-05 02:10 | -27.94250 | 147.91450 | 32145 ft | 442 kts | 342° |
| 2026-05-05 02:10 | -27.88208 | 147.90098 | 32161 ft | 442 kts | 342° |
| 2026-05-05 02:11 | -27.82197 | 147.88754 | 32160 ft | 443 kts | 342° |
| 2026-05-05 02:11 | -27.76145 | 147.87402 | 32158 ft | 443 kts | 342° |
| 2026-05-05 02:12 | -27.67070 | 147.85378 | 32147 ft | 442 kts | 342° |
| 2026-05-05 02:13 | -27.61034 | 147.84035 | 32151 ft | 441 kts | 342° |
| 2026-05-05 02:13 | -27.55061 | 147.82706 | 32153 ft | 440 kts | 342° |
| 2026-05-05 02:14 | -27.49048 | 147.81369 | 32151 ft | 439 kts | 342° |
| 2026-05-05 02:14 | -27.43049 | 147.80036 | 32155 ft | 439 kts | 342° |
| 2026-05-05 02:15 | -27.37077 | 147.78714 | 32146 ft | 435 kts | 341° |
| 2026-05-05 02:15 | -27.31148 | 147.77402 | 32146 ft | 432 kts | 341° |
| 2026-05-05 02:16 | -27.25299 | 147.76108 | 32149 ft | 430 kts | 341° |
| 2026-05-05 02:16 | -27.19426 | 147.74808 | 32147 ft | 429 kts | 341° |
| 2026-05-05 02:17 | -27.14533 | 147.73725 | 32192 ft | 433 kts | 341° |
| 2026-05-05 02:17 | -27.11578 | 147.73072 | 32603 ft | 431 kts | 341° |
| 2026-05-05 02:17 | -27.08652 | 147.72429 | 33086 ft | 427 kts | 341° |
| 2026-05-05 02:17 | -27.05742 | 147.71790 | 33509 ft | 425 kts | 341° |
| 2026-05-05 02:18 | -27.02840 | 147.71151 | 33853 ft | 424 kts | 340° |
| 2026-05-05 02:18 | -26.99948 | 147.70514 | 34075 ft | 425 kts | 340° |
| 2026-05-05 02:18 | -26.97034 | 147.69869 | 34114 ft | 426 kts | 340° |
| 2026-05-05 02:19 | -26.91224 | 147.68591 | 34138 ft | 424 kts | 340° |
| 2026-05-05 02:19 | -26.85448 | 147.67324 | 34132 ft | 421 kts | 340° |
| 2026-05-05 02:20 | -26.79723 | 147.66067 | 34137 ft | 421 kts | 340° |
| 2026-05-05 02:20 | -26.73964 | 147.64803 | 34145 ft | 421 kts | 340° |
| 2026-05-05 02:21 | -26.68233 | 147.63546 | 34145 ft | 423 kts | 340° |
| 2026-05-05 02:21 | -26.62434 | 147.62276 | 34143 ft | 425 kts | 340° |
| 2026-05-05 02:22 | -26.56608 | 147.61002 | 34142 ft | 426 kts | 341° |
| 2026-05-05 02:22 | -26.50779 | 147.59730 | 34141 ft | 427 kts | 341° |
| 2026-05-05 02:23 | -26.44980 | 147.58466 | 34137 ft | 427 kts | 341° |
| 2026-05-05 02:23 | -26.39138 | 147.57193 | 34136 ft | 428 kts | 341° |
| 2026-05-05 02:24 | -26.33297 | 147.55922 | 34096 ft | 427 kts | 341° |
| 2026-05-05 02:24 | -26.27466 | 147.54655 | 34125 ft | 425 kts | 341° |
| 2026-05-05 02:25 | -26.21671 | 147.53397 | 34133 ft | 423 kts | 341° |
| 2026-05-05 02:25 | -26.15922 | 147.52149 | 34133 ft | 422 kts | 341° |
| 2026-05-05 02:26 | -26.10158 | 147.50899 | 34128 ft | 421 kts | 341° |
| 2026-05-05 02:26 | -26.04403 | 147.49652 | 34116 ft | 420 kts | 341° |
| 2026-05-05 02:27 | -25.98658 | 147.48409 | 34127 ft | 420 kts | 341° |
| 2026-05-05 02:27 | -25.92945 | 147.47174 | 34134 ft | 421 kts | 341° |
| 2026-05-05 02:28 | -25.87185 | 147.45929 | 34121 ft | 421 kts | 341° |
| 2026-05-05 02:28 | -25.81424 | 147.44686 | 34122 ft | 422 kts | 341° |
| 2026-05-05 02:29 | -25.75648 | 147.43442 | 34119 ft | 422 kts | 341° |
| 2026-05-05 02:29 | -25.69874 | 147.42199 | 34121 ft | 422 kts | 341° |
| 2026-05-05 02:30 | -25.64125 | 147.40962 | 34119 ft | 423 kts | 341° |
| 2026-05-05 02:30 | -25.58341 | 147.39719 | 34113 ft | 423 kts | 341° |
| 2026-05-05 02:31 | -25.52550 | 147.38476 | 34112 ft | 424 kts | 341° |
| 2026-05-05 02:31 | -25.46752 | 147.37233 | 34111 ft | 424 kts | 341° |
| 2026-05-05 02:32 | -25.41007 | 147.36002 | 34113 ft | 424 kts | 341° |
| 2026-05-05 02:32 | -25.35210 | 147.34761 | 34108 ft | 424 kts | 341° |
| 2026-05-05 02:33 | -25.29418 | 147.33522 | 34104 ft | 423 kts | 341° |
| 2026-05-05 02:33 | -25.23615 | 147.32377 | 34071 ft | 427 kts | 345° |
| 2026-05-05 02:34 | -25.17631 | 147.32034 | 34098 ft | 432 kts | 349° |
| 2026-05-05 02:34 | -25.11634 | 147.31813 | 34088 ft | 431 kts | 349° |
| 2026-05-05 02:35 | -25.05669 | 147.31570 | 34091 ft | 431 kts | 349° |
| 2026-05-05 02:35 | -24.99679 | 147.31324 | 34084 ft | 430 kts | 349° |
| 2026-05-05 02:36 | -24.93689 | 147.31079 | 34079 ft | 430 kts | 349° |
| 2026-05-05 02:36 | -24.87706 | 147.30835 | 34072 ft | 429 kts | 349° |
| 2026-05-05 02:37 | -24.81763 | 147.30594 | 34077 ft | 430 kts | 349° |
| 2026-05-05 02:37 | -24.75772 | 147.30351 | 34065 ft | 430 kts | 349° |
| 2026-05-05 02:38 | -24.69791 | 147.30109 | 34041 ft | 430 kts | 349° |
| 2026-05-05 02:38 | -24.63801 | 147.29867 | 34055 ft | 430 kts | 350° |
| 2026-05-05 02:39 | -24.57838 | 147.29626 | 34048 ft | 431 kts | 350° |
| 2026-05-05 02:39 | -24.51844 | 147.29383 | 34047 ft | 431 kts | 350° |
| 2026-05-05 02:40 | -24.45855 | 147.29142 | 34049 ft | 431 kts | 350° |
| 2026-05-05 02:40 | -24.39858 | 147.28900 | 34048 ft | 431 kts | 350° |
| 2026-05-05 02:41 | -24.33864 | 147.28659 | 34055 ft | 431 kts | 350° |
| 2026-05-05 02:41 | -24.27858 | 147.28417 | 34052 ft | 431 kts | 350° |
| 2026-05-05 02:42 | -24.21898 | 147.28178 | 34057 ft | 432 kts | 350° |
| 2026-05-05 02:42 | -24.15888 | 147.27938 | 34036 ft | 432 kts | 350° |
| 2026-05-05 02:43 | -24.09882 | 147.27696 | 34048 ft | 432 kts | 351° |
| 2026-05-05 02:43 | -24.03859 | 147.27454 | 34054 ft | 432 kts | 351° |
| 2026-05-05 02:44 | -23.97878 | 147.27214 | 34056 ft | 433 kts | 351° |
| 2026-05-05 02:44 | -23.91841 | 147.26973 | 34055 ft | 433 kts | 351° |
| 2026-05-05 02:45 | -23.85805 | 147.26732 | 34052 ft | 434 kts | 351° |
| 2026-05-05 02:45 | -23.79772 | 147.26491 | 34054 ft | 434 kts | 351° |
| 2026-05-05 02:46 | -23.73725 | 147.26250 | 34048 ft | 435 kts | 351° |
| 2026-05-05 02:46 | -23.67724 | 147.26011 | 34046 ft | 434 kts | 351° |
| 2026-05-05 02:47 | -23.61695 | 147.25771 | 34017 ft | 434 kts | 351° |
| 2026-05-05 02:47 | -23.55651 | 147.25530 | 34040 ft | 437 kts | 351° |
| 2026-05-05 02:48 | -23.49538 | 147.25285 | 34051 ft | 440 kts | 351° |
| 2026-05-05 02:48 | -23.43415 | 147.25041 | 34055 ft | 443 kts | 351° |
| 2026-05-05 02:49 | -23.37234 | 147.24796 | 34058 ft | 445 kts | 351° |
| 2026-05-05 02:49 | -23.31040 | 147.24553 | 34043 ft | 445 kts | 351° |
| 2026-05-05 02:50 | -23.24832 | 147.24308 | 34058 ft | 446 kts | 351° |
| 2026-05-05 02:50 | -23.18627 | 147.24063 | 34054 ft | 446 kts | 351° |
| 2026-05-05 02:51 | -23.12416 | 147.23818 | 34050 ft | 446 kts | 351° |
| 2026-05-05 02:51 | -23.06208 | 147.23573 | 34027 ft | 446 kts | 350° |
| 2026-05-05 02:52 | -23.00002 | 147.23329 | 34048 ft | 445 kts | 350° |
| 2026-05-05 02:52 | -22.93845 | 147.23086 | 34051 ft | 445 kts | 350° |
| 2026-05-05 02:53 | -22.87648 | 147.22842 | 34053 ft | 445 kts | 350° |
| 2026-05-05 02:53 | -22.81452 | 147.22598 | 34048 ft | 445 kts | 350° |
| 2026-05-05 02:54 | -22.75250 | 147.22354 | 34041 ft | 445 kts | 350° |
| 2026-05-05 02:54 | -22.69090 | 147.22112 | 34053 ft | 446 kts | 350° |
| 2026-05-05 02:55 | -22.62871 | 147.21868 | 34050 ft | 447 kts | 350° |
| 2026-05-05 02:55 | -22.56654 | 147.21624 | 34050 ft | 447 kts | 350° |
| 2026-05-05 02:56 | -22.50424 | 147.21380 | 34029 ft | 447 kts | 350° |
| 2026-05-05 02:56 | -22.44200 | 147.21136 | 34045 ft | 448 kts | 350° |
| 2026-05-05 02:57 | -22.38010 | 147.20895 | 34042 ft | 448 kts | 350° |
| 2026-05-05 02:57 | -22.31770 | 147.20651 | 34039 ft | 448 kts | 350° |
| 2026-05-05 02:58 | -22.25529 | 147.20407 | 34036 ft | 448 kts | 350° |
| 2026-05-05 02:58 | -22.19285 | 147.20163 | 34023 ft | 448 kts | 351° |
| 2026-05-05 02:59 | -22.13078 | 147.19920 | 34034 ft | 449 kts | 351° |
| 2026-05-05 02:59 | -22.06817 | 147.19675 | 34035 ft | 450 kts | 351° |
| 2026-05-05 03:00 | -22.00553 | 147.19430 | 34037 ft | 451 kts | 351° |
| 2026-05-05 03:00 | -21.94278 | 147.19185 | 34017 ft | 451 kts | 351° |
| 2026-05-05 03:01 | -21.87988 | 147.18940 | 34029 ft | 452 kts | 351° |
| 2026-05-05 03:01 | -21.81692 | 147.18695 | 34026 ft | 453 kts | 351° |
| 2026-05-05 03:02 | -21.75424 | 147.18451 | 34025 ft | 453 kts | 351° |
| 2026-05-05 03:02 | -21.69118 | 147.18206 | 33992 ft | 453 kts | 351° |
| 2026-05-05 03:03 | -21.62812 | 147.17961 | 34013 ft | 454 kts | 351° |
| 2026-05-05 03:03 | -21.57554 | 147.17757 | 34017 ft | 454 kts | 351° |
| 2026-05-05 03:04 | -21.51228 | 147.17512 | 34021 ft | 455 kts | 351° |
| 2026-05-05 03:04 | -21.43860 | 147.17226 | 34019 ft | 456 kts | 351° |
| 2026-05-05 03:05 | -21.38546 | 147.17021 | 34006 ft | 456 kts | 351° |
| 2026-05-05 03:05 | -21.32193 | 147.16775 | 34020 ft | 456 kts | 351° |
| 2026-05-05 03:06 | -21.25875 | 147.16531 | 34024 ft | 457 kts | 351° |
| 2026-05-05 03:06 | -21.19509 | 147.16285 | 34016 ft | 457 kts | 351° |
| 2026-05-05 03:07 | -21.13139 | 147.16040 | 34015 ft | 457 kts | 351° |
| 2026-05-05 03:07 | -21.06780 | 147.15795 | 34028 ft | 457 kts | 351° |
| 2026-05-05 03:08 | -21.00411 | 147.15549 | 34009 ft | 458 kts | 351° |
| 2026-05-05 03:08 | -20.94047 | 147.15305 | 34011 ft | 457 kts | 351° |
| 2026-05-05 03:09 | -20.87682 | 147.15060 | 34015 ft | 457 kts | 351° |
| 2026-05-05 03:09 | -20.81316 | 147.14815 | 33998 ft | 457 kts | 351° |
| 2026-05-05 03:10 | -20.74992 | 147.14572 | 34007 ft | 458 kts | 351° |
| 2026-05-05 03:10 | -20.68687 | 147.13930 | 34008 ft | 450 kts | 343° |
| 2026-05-05 03:11 | -20.62643 | 147.12331 | 34009 ft | 447 kts | 339° |
| 2026-05-05 03:11 | -20.56593 | 147.10684 | 34007 ft | 448 kts | 340° |
| 2026-05-05 03:12 | -20.50575 | 147.09072 | 33992 ft | 449 kts | 340° |
| 2026-05-05 03:12 | -20.44505 | 147.07453 | 34005 ft | 450 kts | 340° |
| 2026-05-05 03:13 | -20.38410 | 147.05828 | 34013 ft | 451 kts | 340° |
| 2026-05-05 03:13 | -20.32309 | 147.04202 | 34010 ft | 452 kts | 340° |
| 2026-05-05 03:14 | -20.26241 | 147.02587 | 34001 ft | 452 kts | 340° |
| 2026-05-05 03:14 | -20.20134 | 147.00963 | 34005 ft | 452 kts | 340° |
| 2026-05-05 03:15 | -20.14019 | 146.99336 | 34015 ft | 453 kts | 340° |
| 2026-05-05 03:15 | -20.07889 | 146.97708 | 33998 ft | 453 kts | 340° |
| 2026-05-05 03:16 | -20.01762 | 146.96082 | 34010 ft | 454 kts | 340° |
| 2026-05-05 03:16 | -19.95633 | 146.94456 | 33972 ft | 454 kts | 340° |
| 2026-05-05 03:17 | -19.89532 | 146.92839 | 33999 ft | 454 kts | 340° |
| 2026-05-05 03:17 | -19.83399 | 146.91204 | 34006 ft | 453 kts | 338° |
| 2026-05-05 03:18 | -19.77532 | 146.88909 | 34006 ft | 445 kts | 328° |
| 2026-05-05 03:18 | -19.72034 | 146.85960 | 34010 ft | 445 kts | 328° |
| 2026-05-05 03:19 | -19.63693 | 146.81554 | 33980 ft | 446 kts | 328° |
| 2026-05-05 03:19 | -19.58119 | 146.78627 | 34003 ft | 447 kts | 328° |
| 2026-05-05 03:20 | -19.52541 | 146.75700 | 34010 ft | 448 kts | 328° |
| 2026-05-05 03:20 | -19.46942 | 146.72763 | 34012 ft | 448 kts | 328° |
| 2026-05-05 03:21 | -19.41350 | 146.69832 | 34017 ft | 449 kts | 329° |
| 2026-05-05 03:21 | -19.35743 | 146.66896 | 33994 ft | 449 kts | 329° |
| 2026-05-05 03:22 | -19.30176 | 146.63982 | 33985 ft | 449 kts | 329° |
| 2026-05-05 03:22 | -19.24565 | 146.61048 | 33993 ft | 450 kts | 329° |
| 2026-05-05 03:23 | -19.18947 | 146.58112 | 33999 ft | 450 kts | 329° |
| 2026-05-05 03:23 | -19.13311 | 146.55169 | 34000 ft | 451 kts | 329° |
| 2026-05-05 03:24 | -19.07681 | 146.52232 | 34001 ft | 451 kts | 329° |
| 2026-05-05 03:24 | -19.02042 | 146.49293 | 34006 ft | 451 kts | 329° |
| 2026-05-05 03:25 | -18.96412 | 146.46360 | 33999 ft | 452 kts | 329° |
| 2026-05-05 03:25 | -18.90769 | 146.43422 | 34007 ft | 452 kts | 329° |
| 2026-05-05 03:26 | -18.85158 | 146.40503 | 34006 ft | 453 kts | 329° |
| 2026-05-05 03:26 | -18.79499 | 146.37562 | 34006 ft | 453 kts | 329° |
| 2026-05-05 03:27 | -18.73826 | 146.34615 | 34000 ft | 454 kts | 329° |
| 2026-05-05 03:27 | -18.68159 | 146.31674 | 33985 ft | 454 kts | 329° |
| 2026-05-05 03:28 | -18.62485 | 146.28732 | 33997 ft | 454 kts | 329° |
| 2026-05-05 03:28 | -18.56805 | 146.25788 | 34003 ft | 455 kts | 329° |
| 2026-05-05 03:29 | -18.51153 | 146.22862 | 34000 ft | 455 kts | 329° |
| 2026-05-05 03:29 | -18.45456 | 146.19914 | 34000 ft | 455 kts | 329° |
| 2026-05-05 03:30 | -18.39763 | 146.16970 | 34001 ft | 456 kts | 329° |
| 2026-05-05 03:30 | -18.34067 | 146.14027 | 33990 ft | 456 kts | 329° |
| 2026-05-05 03:31 | -18.28400 | 146.11101 | 34003 ft | 456 kts | 329° |
| 2026-05-05 03:31 | -18.22692 | 146.08156 | 34011 ft | 457 kts | 329° |
| 2026-05-05 03:32 | -18.16974 | 146.05208 | 34009 ft | 457 kts | 329° |
| 2026-05-05 03:32 | -18.11256 | 146.02263 | 33998 ft | 457 kts | 329° |
| 2026-05-05 03:33 | -18.05575 | 145.99338 | 34011 ft | 457 kts | 329° |
| 2026-05-05 03:33 | -17.99853 | 145.96395 | 34006 ft | 457 kts | 329° |
| 2026-05-05 03:34 | -17.94137 | 145.93457 | 34011 ft | 457 kts | 329° |
| 2026-05-05 03:34 | -17.88416 | 145.90517 | 33989 ft | 457 kts | 329° |
| 2026-05-05 03:35 | -17.82743 | 145.87606 | 34029 ft | 456 kts | 329° |
| 2026-05-05 03:35 | -17.77036 | 145.84678 | 34002 ft | 456 kts | 329° |
| 2026-05-05 03:36 | -17.71329 | 145.81750 | 34010 ft | 457 kts | 330° |
| 2026-05-05 03:36 | -17.65604 | 145.78821 | 34008 ft | 458 kts | 329° |
| 2026-05-05 03:37 | -17.59866 | 145.75889 | 34000 ft | 459 kts | 329° |
| 2026-05-05 03:37 | -17.54162 | 145.72976 | 34009 ft | 459 kts | 329° |
| 2026-05-05 03:38 | -17.48407 | 145.70038 | 34012 ft | 460 kts | 329° |
| 2026-05-05 03:38 | -17.42646 | 145.67101 | 34006 ft | 460 kts | 329° |
| 2026-05-05 03:39 | -17.36886 | 145.64165 | 34003 ft | 461 kts | 330° |
| 2026-05-05 03:39 | -17.31111 | 145.61224 | 34003 ft | 461 kts | 330° |
| 2026-05-05 03:40 | -17.25379 | 145.58305 | 34004 ft | 461 kts | 330° |
| 2026-05-05 03:40 | -17.19585 | 145.55358 | 33992 ft | 462 kts | 330° |
| 2026-05-05 03:41 | -17.13798 | 145.52417 | 33997 ft | 462 kts | 330° |
| 2026-05-05 03:41 | -17.08051 | 145.49497 | 33982 ft | 462 kts | 330° |
| 2026-05-05 03:42 | -17.02260 | 145.46557 | 33979 ft | 463 kts | 330° |
| 2026-05-05 03:42 | -16.96463 | 145.43625 | 33982 ft | 463 kts | 332° |
| 2026-05-05 03:43 | -16.90259 | 145.41594 | 33989 ft | 471 kts | 344° |
| 2026-05-05 03:43 | -16.83692 | 145.40852 | 33984 ft | 479 kts | 353° |
| 2026-05-05 03:44 | -16.77008 | 145.40703 | 33969 ft | 480 kts | 354° |
| 2026-05-05 03:44 | -16.70375 | 145.40564 | 33980 ft | 480 kts | 354° |
| 2026-05-05 03:45 | -16.63691 | 145.40392 | 33979 ft | 480 kts | 353° |
| 2026-05-05 03:45 | -16.56996 | 145.40199 | 33985 ft | 481 kts | 353° |
| 2026-05-05 03:46 | -16.50299 | 145.40002 | 33976 ft | 481 kts | 353° |
| 2026-05-05 03:46 | -16.43601 | 145.39807 | 33983 ft | 481 kts | 353° |
| 2026-05-05 03:47 | -16.36939 | 145.39615 | 33985 ft | 481 kts | 353° |
| 2026-05-05 03:47 | -16.30232 | 145.39421 | 33981 ft | 482 kts | 353° |
| 2026-05-05 03:48 | -16.23515 | 145.39227 | 33982 ft | 482 kts | 353° |
| 2026-05-05 03:48 | -16.16803 | 145.39034 | 33971 ft | 482 kts | 354° |
| 2026-05-05 03:49 | -16.10129 | 145.38842 | 33974 ft | 482 kts | 354° |
| 2026-05-05 03:49 | -16.03420 | 145.38648 | 33979 ft | 483 kts | 354° |
| 2026-05-05 03:50 | -15.96685 | 145.38454 | 33972 ft | 484 kts | 354° |
| 2026-05-05 03:50 | -15.91090 | 145.38293 | 33954 ft | 484 kts | 354° |
| 2026-05-05 03:51 | -15.84350 | 145.38100 | 33967 ft | 484 kts | 354° |
| 2026-05-05 03:51 | -15.76510 | 145.37874 | 33964 ft | 485 kts | 354° |
| 2026-05-05 03:52 | -15.70895 | 145.37713 | 33964 ft | 485 kts | 354° |
| 2026-05-05 03:52 | -15.64139 | 145.37519 | 33958 ft | 485 kts | 354° |
| 2026-05-05 03:53 | -15.57373 | 145.37325 | 33957 ft | 485 kts | 354° |
| 2026-05-05 03:53 | -15.50621 | 145.37132 | 33950 ft | 486 kts | 354° |
| 2026-05-05 03:54 | -15.43892 | 145.36939 | 33967 ft | 486 kts | 354° |
| 2026-05-05 03:54 | -15.37127 | 145.36746 | 33953 ft | 486 kts | 354° |
| 2026-05-05 03:55 | -15.30353 | 145.36552 | 33943 ft | 487 kts | 354° |
| 2026-05-05 03:55 | -15.23576 | 145.36358 | 33962 ft | 487 kts | 354° |
| 2026-05-05 03:56 | -15.16786 | 145.36164 | 33954 ft | 488 kts | 354° |
| 2026-05-05 03:56 | -15.10036 | 145.35971 | 33952 ft | 488 kts | 354° |
| 2026-05-05 03:57 | -15.03242 | 145.35778 | 33953 ft | 489 kts | 354° |
| 2026-05-05 03:57 | -14.96432 | 145.35584 | 33949 ft | 489 kts | 354° |
| 2026-05-05 03:58 | -14.89620 | 145.35390 | 33951 ft | 489 kts | 354° |
| 2026-05-05 03:58 | -14.82854 | 145.35197 | 33946 ft | 489 kts | 354° |
| 2026-05-05 03:59 | -14.76047 | 145.35003 | 33946 ft | 489 kts | 354° |
| 2026-05-05 03:59 | -14.69245 | 145.34810 | 33935 ft | 489 kts | 354° |
| 2026-05-05 04:00 | -14.62433 | 145.34616 | 33938 ft | 489 kts | 354° |
| 2026-05-05 04:00 | -14.55668 | 145.34424 | 33939 ft | 489 kts | 354° |
| 2026-05-05 04:01 | -14.48858 | 145.34231 | 33935 ft | 489 kts | 354° |
| 2026-05-05 04:01 | -14.42029 | 145.34037 | 33930 ft | 490 kts | 354° |
| 2026-05-05 04:02 | -14.35278 | 145.33672 | 33928 ft | 486 kts | 348° |
| 2026-05-05 04:02 | -14.28609 | 145.32585 | 33936 ft | 485 kts | 346° |
| 2026-05-05 04:03 | -14.21930 | 145.31464 | 33929 ft | 486 kts | 347° |
| 2026-05-05 04:03 | -14.15231 | 145.30367 | 33932 ft | 487 kts | 347° |
| 2026-05-05 04:04 | -14.08535 | 145.29289 | 33924 ft | 488 kts | 347° |
| 2026-05-05 04:04 | -14.01828 | 145.28215 | 33927 ft | 488 kts | 347° |
| 2026-05-05 04:05 | -13.95147 | 145.27145 | 33924 ft | 489 kts | 347° |
| 2026-05-05 04:05 | -13.88409 | 145.26065 | 33922 ft | 489 kts | 347° |
| 2026-05-05 04:06 | -13.81675 | 145.24986 | 33919 ft | 490 kts | 347° |
| 2026-05-05 04:06 | -13.74925 | 145.23905 | 33925 ft | 490 kts | 347° |
| 2026-05-05 04:07 | -13.68183 | 145.22826 | 33924 ft | 490 kts | 347° |
| 2026-05-05 04:07 | -13.61470 | 145.21752 | 33923 ft | 491 kts | 347° |
| 2026-05-05 04:08 | -13.54719 | 145.20673 | 33921 ft | 491 kts | 347° |
| 2026-05-05 04:08 | -13.47952 | 145.19591 | 33917 ft | 491 kts | 348° |
| 2026-05-05 04:09 | -13.41193 | 145.18512 | 33915 ft | 491 kts | 348° |
| 2026-05-05 04:09 | -13.34479 | 145.17441 | 33916 ft | 491 kts | 348° |
| 2026-05-05 04:10 | -13.27723 | 145.16363 | 33912 ft | 491 kts | 348° |
| 2026-05-05 04:10 | -13.20969 | 145.15286 | 33911 ft | 491 kts | 348° |
| 2026-05-05 04:11 | -13.14222 | 145.14212 | 33911 ft | 490 kts | 348° |
| 2026-05-05 04:11 | -13.07512 | 145.13143 | 33909 ft | 490 kts | 348° |
| 2026-05-05 04:12 | -13.00766 | 145.12070 | 33909 ft | 490 kts | 348° |
| 2026-05-05 04:12 | -12.94013 | 145.10996 | 33910 ft | 490 kts | 348° |
| 2026-05-05 04:13 | -12.87313 | 145.09930 | 33906 ft | 490 kts | 348° |
| 2026-05-05 04:13 | -12.80535 | 145.08854 | 33904 ft | 490 kts | 348° |
| 2026-05-05 04:14 | -12.73785 | 145.07782 | 33904 ft | 490 kts | 348° |
| 2026-05-05 04:14 | -12.67082 | 145.06718 | 33901 ft | 491 kts | 348° |
| 2026-05-05 04:15 | -12.60319 | 145.05645 | 33891 ft | 492 kts | 348° |
| 2026-05-05 04:15 | -12.53543 | 145.04570 | 33906 ft | 494 kts | 348° |
| 2026-05-05 04:16 | -12.46729 | 145.03490 | 33905 ft | 496 kts | 349° |
| 2026-05-05 04:16 | -12.39889 | 145.02407 | 33904 ft | 498 kts | 349° |
| 2026-05-05 04:17 | -12.33024 | 145.01320 | 33901 ft | 499 kts | 349° |
| 2026-05-05 04:17 | -12.26194 | 145.00240 | 33890 ft | 499 kts | 348° |
| 2026-05-05 04:18 | -12.19330 | 144.99155 | 33896 ft | 499 kts | 348° |
| 2026-05-05 04:18 | -12.12462 | 144.98069 | 33896 ft | 499 kts | 348° |
| 2026-05-05 04:19 | -12.05606 | 144.96986 | 33892 ft | 498 kts | 348° |
| 2026-05-05 04:19 | -11.98747 | 144.95903 | 33893 ft | 498 kts | 348° |
| 2026-05-05 04:20 | -11.91900 | 144.94821 | 33892 ft | 497 kts | 348° |
| 2026-05-05 04:20 | -11.85066 | 144.93740 | 33893 ft | 497 kts | 348° |
| 2026-05-05 04:21 | -11.78231 | 144.92659 | 33890 ft | 496 kts | 348° |
| 2026-05-05 04:21 | -11.71450 | 144.91588 | 33891 ft | 496 kts | 348° |
| 2026-05-05 04:22 | -11.64614 | 144.90508 | 33890 ft | 496 kts | 348° |
| 2026-05-05 04:22 | -11.57784 | 144.89430 | 33889 ft | 497 kts | 348° |
| 2026-05-05 04:23 | -11.50943 | 144.88351 | 33888 ft | 497 kts | 348° |
| 2026-05-05 04:23 | -11.44098 | 144.87272 | 33888 ft | 497 kts | 348° |
| 2026-05-05 04:24 | -11.37256 | 144.86193 | 33888 ft | 496 kts | 349° |
| 2026-05-05 04:25 | -11.27108 | 144.84595 | 33877 ft | 491 kts | 349° |
| 2026-05-05 04:25 | -11.20373 | 144.83536 | 33873 ft | 489 kts | 349° |
| 2026-05-05 04:26 | -11.13655 | 144.82478 | 33876 ft | 487 kts | 349° |
| 2026-05-05 04:26 | -11.06957 | 144.81425 | 33880 ft | 486 kts | 349° |
| 2026-05-05 04:27 | -11.00269 | 144.80373 | 33880 ft | 486 kts | 349° |
| 2026-05-05 04:27 | -10.93619 | 144.79328 | 33881 ft | 487 kts | 349° |
| 2026-05-05 04:28 | -10.86910 | 144.78274 | 33878 ft | 488 kts | 349° |
| 2026-05-05 04:28 | -10.80186 | 144.77218 | 33878 ft | 489 kts | 349° |
| 2026-05-05 04:29 | -10.73447 | 144.76161 | 33870 ft | 491 kts | 349° |
| 2026-05-05 04:29 | -10.66672 | 144.75098 | 33876 ft | 493 kts | 349° |
| 2026-05-05 04:30 | -10.59878 | 144.74032 | 33876 ft | 495 kts | 349° |
| 2026-05-05 04:30 | -10.53112 | 144.72973 | 33874 ft | 496 kts | 349° |
| 2026-05-05 04:31 | -10.46280 | 144.71903 | 33868 ft | 496 kts | 349° |
| 2026-05-05 04:31 | -10.39454 | 144.70835 | 33869 ft | 497 kts | 349° |
| 2026-05-05 04:32 | -10.32617 | 144.69765 | 33865 ft | 497 kts | 349° |
| 2026-05-05 04:32 | -10.25775 | 144.68695 | 33865 ft | 497 kts | 349° |
| 2026-05-05 04:33 | -10.18986 | 144.67633 | 33863 ft | 496 kts | 349° |
| 2026-05-05 04:33 | -10.12156 | 144.66566 | 33865 ft | 496 kts | 349° |
| 2026-05-05 04:34 | -10.05333 | 144.65500 | 33861 ft | 495 kts | 349° |
| 2026-05-05 04:34 | -9.98527 | 144.64437 | 33863 ft | 494 kts | 349° |
| 2026-05-05 04:35 | -9.91769 | 144.63383 | 33864 ft | 494 kts | 349° |
| 2026-05-05 04:35 | -9.84984 | 144.62324 | 33862 ft | 493 kts | 349° |
| 2026-05-05 04:36 | -9.78205 | 144.61267 | 33858 ft | 492 kts | 349° |
| 2026-05-05 04:36 | -9.71437 | 144.60212 | 33855 ft | 492 kts | 349° |
| 2026-05-05 04:37 | -9.64669 | 144.59157 | 33855 ft | 491 kts | 350° |
| 2026-05-05 04:37 | -9.57907 | 144.58104 | 33855 ft | 491 kts | 349° |
| 2026-05-05 04:38 | -9.52279 | 144.57227 | 33850 ft | 492 kts | 350° |
| 2026-05-05 04:38 | -9.44406 | 144.56001 | 33854 ft | 493 kts | 350° |
| 2026-05-05 04:39 | -9.38722 | 144.55117 | 33854 ft | 494 kts | 350° |
| 2026-05-05 04:39 | -9.31960 | 144.54066 | 33850 ft | 495 kts | 350° |
| 2026-05-05 04:40 | -9.25153 | 144.53007 | 33853 ft | 495 kts | 350° |
| 2026-05-05 04:40 | -9.18331 | 144.51947 | 33850 ft | 495 kts | 351° |
| 2026-05-05 04:41 | -9.11564 | 144.50896 | 33847 ft | 493 kts | 351° |
| 2026-05-05 04:41 | -9.04788 | 144.49844 | 33842 ft | 491 kts | 351° |
| 2026-05-05 04:42 | -8.98024 | 144.48795 | 33837 ft | 490 kts | 350° |
| 2026-05-05 04:42 | -8.91325 | 144.47755 | 33846 ft | 490 kts | 350° |
| 2026-05-05 04:43 | -8.84574 | 144.46707 | 33843 ft | 491 kts | 350° |
| 2026-05-05 04:43 | -8.77813 | 144.45659 | 33844 ft | 492 kts | 350° |
| 2026-05-05 04:44 | -8.71033 | 144.44608 | 33841 ft | 493 kts | 350° |
| 2026-05-05 04:44 | -8.64234 | 144.43555 | 33840 ft | 493 kts | 350° |
| 2026-05-05 04:45 | -8.57485 | 144.42509 | 33837 ft | 494 kts | 351° |
| 2026-05-05 04:45 | -8.50675 | 144.41455 | 33839 ft | 495 kts | 351° |
| 2026-05-05 04:46 | -8.43867 | 144.40401 | 33835 ft | 495 kts | 351° |
| 2026-05-05 04:46 | -8.37054 | 144.39347 | 33834 ft | 495 kts | 351° |
| 2026-05-05 04:47 | -8.30238 | 144.38293 | 33831 ft | 495 kts | 350° |
| 2026-05-05 04:47 | -8.23474 | 144.37248 | 33832 ft | 495 kts | 350° |
| 2026-05-05 04:48 | -8.16671 | 144.36196 | 33831 ft | 495 kts | 350° |
| 2026-05-05 04:48 | -8.09865 | 144.35145 | 33832 ft | 494 kts | 350° |
| 2026-05-05 04:49 | -8.03064 | 144.34094 | 33829 ft | 494 kts | 350° |
| 2026-05-05 04:49 | -7.96260 | 144.33043 | 33830 ft | 494 kts | 351° |
| 2026-05-05 04:50 | -7.89467 | 144.31995 | 33829 ft | 494 kts | 351° |
| 2026-05-05 04:50 | -7.82665 | 144.30945 | 33829 ft | 494 kts | 351° |
| 2026-05-05 04:51 | -7.75905 | 144.29903 | 33827 ft | 494 kts | 351° |
| 2026-05-05 04:51 | -7.69106 | 144.28854 | 33822 ft | 494 kts | 351° |
| 2026-05-05 04:52 | -7.62294 | 144.27804 | 33828 ft | 496 kts | 351° |
| 2026-05-05 04:52 | -7.55441 | 144.26748 | 33831 ft | 497 kts | 351° |
| 2026-05-05 04:53 | -7.48584 | 144.25691 | 33826 ft | 499 kts | 351° |
| 2026-05-05 04:53 | -7.41700 | 144.24714 | 33823 ft | 500 kts | 355° |
| 2026-05-05 04:54 | -7.34792 | 144.24448 | 33830 ft | 498 kts | 359° |
| 2026-05-05 04:54 | -7.27878 | 144.24267 | 33819 ft | 495 kts | 359° |
| 2026-05-05 04:55 | -7.21005 | 144.24064 | 33822 ft | 492 kts | 358° |
| 2026-05-05 04:55 | -7.14178 | 144.23839 | 33833 ft | 490 kts | 358° |
| 2026-05-05 04:56 | -7.07369 | 144.23607 | 33831 ft | 489 kts | 358° |
| 2026-05-05 04:56 | -7.00572 | 144.23376 | 33851 ft | 488 kts | 358° |
| 2026-05-05 04:57 | -6.93775 | 144.23147 | 33855 ft | 489 kts | 358° |
| 2026-05-05 04:57 | -6.86963 | 144.22917 | 33868 ft | 490 kts | 358° |
| 2026-05-05 04:58 | -6.80185 | 144.22689 | 33864 ft | 491 kts | 358° |
| 2026-05-05 04:58 | -6.73341 | 144.22459 | 33873 ft | 492 kts | 358° |
| 2026-05-05 04:59 | -6.66481 | 144.22228 | 33880 ft | 493 kts | 358° |
| 2026-05-05 04:59 | -6.59611 | 144.21997 | 33890 ft | 494 kts | 358° |
| 2026-05-05 05:00 | -6.52731 | 144.21765 | 33904 ft | 494 kts | 358° |
| 2026-05-05 05:00 | -6.45845 | 144.21534 | 33904 ft | 494 kts | 358° |
| 2026-05-05 05:01 | -6.38974 | 144.21303 | 33912 ft | 494 kts | 358° |
| 2026-05-05 05:01 | -6.32142 | 144.21073 | 33911 ft | 493 kts | 358° |
| 2026-05-05 05:02 | -6.25265 | 144.20842 | 33920 ft | 493 kts | 358° |
| 2026-05-05 05:02 | -6.18403 | 144.20612 | 33923 ft | 493 kts | 358° |
| 2026-05-05 05:03 | -6.11551 | 144.20381 | 33926 ft | 492 kts | 358° |
| 2026-05-05 05:03 | -6.04738 | 144.20153 | 33933 ft | 492 kts | 357° |
| 2026-05-05 05:04 | -5.97876 | 144.19922 | 33928 ft | 492 kts | 358° |
| 2026-05-05 05:04 | -5.91022 | 144.19692 | 33936 ft | 492 kts | 358° |
| 2026-05-05 05:05 | -5.84212 | 144.19464 | 33936 ft | 492 kts | 358° |
| 2026-05-05 05:05 | -5.77370 | 144.19235 | 33925 ft | 492 kts | 358° |
| 2026-05-05 05:06 | -5.70522 | 144.19005 | 33926 ft | 492 kts | 358° |
| 2026-05-05 05:06 | -5.63671 | 144.18775 | 33912 ft | 493 kts | 358° |
| 2026-05-05 05:07 | -5.56813 | 144.18545 | 33904 ft | 493 kts | 358° |
| 2026-05-05 05:07 | -5.49994 | 144.18316 | 33901 ft | 493 kts | 358° |
| 2026-05-05 05:08 | -5.43144 | 144.18087 | 33882 ft | 492 kts | 358° |
| 2026-05-05 05:08 | -5.36294 | 144.17858 | 33882 ft | 492 kts | 357° |
| 2026-05-05 05:09 | -5.29440 | 144.17628 | 33875 ft | 492 kts | 358° |
| 2026-05-05 05:09 | -5.22599 | 144.17399 | 33880 ft | 492 kts | 358° |
| 2026-05-05 05:10 | -5.15760 | 144.17170 | 33875 ft | 492 kts | 358° |
| 2026-05-05 05:10 | -5.08913 | 144.16941 | 33871 ft | 492 kts | 358° |
| 2026-05-05 05:11 | -5.02065 | 144.16712 | 33868 ft | 492 kts | 358° |
| 2026-05-05 05:11 | -4.95219 | 144.16483 | 33863 ft | 492 kts | 357° |
| 2026-05-05 05:12 | -4.88365 | 144.16253 | 33848 ft | 493 kts | 358° |
| 2026-05-05 05:12 | -4.81544 | 144.16025 | 33826 ft | 494 kts | 358° |
| 2026-05-05 05:13 | -4.74670 | 144.15796 | 33827 ft | 494 kts | 358° |
| 2026-05-05 05:13 | -4.67792 | 144.15566 | 33811 ft | 494 kts | 358° |
| 2026-05-05 05:14 | -4.60916 | 144.15336 | 33814 ft | 494 kts | 358° |
| 2026-05-05 05:14 | -4.54041 | 144.15106 | 33801 ft | 494 kts | 358° |
| 2026-05-05 05:15 | -4.47164 | 144.14876 | 33802 ft | 494 kts | 358° |
| 2026-05-05 05:15 | -4.40319 | 144.14648 | 33804 ft | 494 kts | 358° |
| 2026-05-05 05:16 | -4.33444 | 144.14418 | 33804 ft | 494 kts | 358° |
| 2026-05-05 05:16 | -4.26557 | 144.14188 | 33801 ft | 495 kts | 358° |
| 2026-05-05 05:17 | -4.19663 | 144.13958 | 33805 ft | 495 kts | 358° |
| 2026-05-05 05:17 | -4.12763 | 144.13728 | 33804 ft | 496 kts | 358° |
| 2026-05-05 05:18 | -4.05848 | 144.13497 | 33809 ft | 496 kts | 358° |
| 2026-05-05 05:18 | -3.98940 | 144.13267 | 33813 ft | 496 kts | 358° |
| 2026-05-05 05:19 | -3.92066 | 144.13037 | 33808 ft | 496 kts | 358° |
| 2026-05-05 05:19 | -3.85172 | 144.12807 | 33807 ft | 495 kts | 358° |
| 2026-05-05 05:20 | -3.78287 | 144.12578 | 33810 ft | 494 kts | 358° |
| 2026-05-05 05:20 | -3.71409 | 144.12349 | 33810 ft | 494 kts | 358° |
| 2026-05-05 05:21 | -3.64585 | 144.12121 | 33813 ft | 493 kts | 358° |
| 2026-05-05 05:21 | -3.57718 | 144.11892 | 33812 ft | 493 kts | 358° |
| 2026-05-05 05:22 | -3.50858 | 144.11663 | 33812 ft | 493 kts | 358° |
| 2026-05-05 05:22 | -3.44002 | 144.11435 | 33813 ft | 493 kts | 358° |
| 2026-05-05 05:23 | -3.37188 | 144.11208 | 33812 ft | 493 kts | 359° |
| 2026-05-05 05:23 | -3.31467 | 144.11017 | 33814 ft | 494 kts | 358° |
| 2026-05-05 05:24 | -3.24597 | 144.10789 | 33812 ft | 494 kts | 358° |
| 2026-05-05 05:24 | -3.17713 | 144.10559 | 33816 ft | 494 kts | 358° |
| 2026-05-05 05:25 | -3.10824 | 144.10330 | 33811 ft | 495 kts | 359° |
| 2026-05-05 05:25 | -3.03977 | 144.10102 | 33805 ft | 495 kts | 359° |
| 2026-05-05 05:26 | -2.97069 | 144.09872 | 33814 ft | 496 kts | 359° |
| 2026-05-05 05:26 | -2.90147 | 144.09641 | 33812 ft | 497 kts | 359° |
| 2026-05-05 05:27 | -2.83221 | 144.09411 | 33831 ft | 499 kts | 359° |
| 2026-05-05 05:27 | -2.79746 | 144.09295 | 34039 ft | 500 kts | 359° |
| 2026-05-05 05:27 | -2.72862 | 144.09066 | 34800 ft | 495 kts | 359° |
| 2026-05-05 05:28 | -2.69432 | 144.08952 | 35172 ft | 492 kts | 359° |
| 2026-05-05 05:28 | -2.66018 | 144.08838 | 35530 ft | 490 kts | 359° |
| 2026-05-05 05:28 | -2.62594 | 144.08724 | 35731 ft | 491 kts | 359° |
| 2026-05-05 05:28 | -2.59168 | 144.08610 | 35764 ft | 493 kts | 359° |
| 2026-05-05 05:29 | -2.52315 | 144.08383 | 35805 ft | 492 kts | 359° |
| 2026-05-05 05:29 | -2.45526 | 144.08157 | 35810 ft | 489 kts | 359° |
| 2026-05-05 05:30 | -2.38723 | 144.07930 | 35808 ft | 488 kts | 359° |
| 2026-05-05 05:30 | -2.31945 | 144.07705 | 35810 ft | 487 kts | 359° |
| 2026-05-05 05:31 | -2.25163 | 144.07480 | 35811 ft | 487 kts | 359° |
| 2026-05-05 05:31 | -2.18373 | 144.07254 | 35810 ft | 488 kts | 359° |
| 2026-05-05 05:32 | -2.11578 | 144.07028 | 35805 ft | 488 kts | 359° |
| 2026-05-05 05:32 | -2.04823 | 144.06803 | 35810 ft | 489 kts | 359° |
| 2026-05-05 05:33 | -1.98008 | 144.06577 | 35812 ft | 490 kts | 359° |
| 2026-05-05 05:33 | -1.91177 | 144.06350 | 35811 ft | 491 kts | 359° |
| 2026-05-05 05:34 | -1.84351 | 144.06123 | 35816 ft | 491 kts | 359° |
| 2026-05-05 05:34 | -1.77499 | 144.05895 | 35811 ft | 492 kts | 359° |
| 2026-05-05 05:35 | -1.70656 | 144.05668 | 35806 ft | 492 kts | 359° |
| 2026-05-05 05:35 | -1.63810 | 144.05440 | 35809 ft | 492 kts | 359° |
| 2026-05-05 05:36 | -1.57013 | 144.05214 | 35805 ft | 492 kts | 359° |
| 2026-05-05 05:36 | -1.50163 | 144.04987 | 35808 ft | 492 kts | 359° |
| 2026-05-05 05:37 | -1.43302 | 144.04759 | 35810 ft | 492 kts | 359° |
| 2026-05-05 05:37 | -1.36442 | 144.04531 | 35809 ft | 492 kts | 359° |
| 2026-05-05 05:38 | -1.29596 | 144.04304 | 35803 ft | 492 kts | 359° |
| 2026-05-05 05:38 | -1.22797 | 144.04078 | 35804 ft | 492 kts | 359° |
| 2026-05-05 05:39 | -1.15942 | 144.03850 | 35805 ft | 492 kts | 359° |
| 2026-05-05 05:39 | -1.09101 | 144.03623 | 35812 ft | 492 kts | 359° |
| 2026-05-05 05:40 | -1.02251 | 144.03395 | 35806 ft | 492 kts | 359° |
| 2026-05-05 05:40 | -0.95391 | 144.03168 | 35805 ft | 492 kts | 359° |
| 2026-05-05 05:41 | -0.88582 | 144.02941 | 35806 ft | 493 kts | 359° |
| 2026-05-05 05:41 | -0.81719 | 144.02713 | 35805 ft | 493 kts | 359° |
| 2026-05-05 05:42 | -0.74844 | 144.02485 | 35807 ft | 494 kts | 359° |
| 2026-05-05 05:42 | -0.67975 | 144.02257 | 35802 ft | 494 kts | 359° |
| 2026-05-05 05:43 | -0.61141 | 144.02030 | 35807 ft | 494 kts | 359° |
| 2026-05-05 05:43 | -0.54249 | 144.01801 | 35806 ft | 495 kts | 359° |
| 2026-05-05 05:44 | -0.47354 | 144.01572 | 35809 ft | 495 kts | 359° |
| 2026-05-05 05:44 | -0.40507 | 144.01345 | 35803 ft | 495 kts | 359° |
| 2026-05-05 05:45 | -0.33616 | 144.01116 | 35802 ft | 496 kts | 359° |
| 2026-05-05 05:45 | -0.26711 | 144.00887 | 35804 ft | 496 kts | 359° |
| 2026-05-05 05:46 | -0.19810 | 144.00658 | 35806 ft | 496 kts | 359° |
| 2026-05-05 05:46 | -0.12912 | 144.00429 | 35805 ft | 496 kts | 359° |
| 2026-05-05 05:47 | -0.06048 | 144.00201 | 35799 ft | 495 kts | 359° |
| 2026-05-05 05:47 | 0.00860 | 143.99969 | 35810 ft | 495 kts | 359° |
| 2026-05-05 05:48 | 0.07745 | 143.99518 | 35800 ft | 496 kts | 356° |
| 2026-05-05 05:48 | 0.14620 | 143.98932 | 35800 ft | 495 kts | 356° |
| 2026-05-05 05:49 | 0.21449 | 143.98368 | 35799 ft | 495 kts | 356° |
| 2026-05-05 05:49 | 0.28325 | 143.97831 | 35803 ft | 495 kts | 356° |
| 2026-05-05 05:50 | 0.35204 | 143.97307 | 35803 ft | 495 kts | 357° |
| 2026-05-05 05:50 | 0.42077 | 143.96785 | 35804 ft | 495 kts | 356° |
| 2026-05-05 05:51 | 0.48960 | 143.96260 | 35800 ft | 495 kts | 357° |
| 2026-05-05 05:51 | 0.55788 | 143.95738 | 35805 ft | 495 kts | 357° |
| 2026-05-05 05:52 | 0.62667 | 143.95213 | 35805 ft | 495 kts | 356° |
| 2026-05-05 05:52 | 0.69542 | 143.94687 | 35797 ft | 495 kts | 356° |
| 2026-05-05 05:53 | 0.76372 | 143.94165 | 35803 ft | 495 kts | 356° |
| 2026-05-05 05:53 | 0.83248 | 143.93640 | 35799 ft | 495 kts | 356° |
| 2026-05-05 05:54 | 0.90126 | 143.93114 | 35804 ft | 495 kts | 356° |
| 2026-05-05 05:54 | 0.97010 | 143.92588 | 35802 ft | 495 kts | 356° |
| 2026-05-05 05:55 | 1.03849 | 143.92065 | 35800 ft | 495 kts | 356° |
| 2026-05-05 05:55 | 1.10726 | 143.91540 | 35800 ft | 496 kts | 356° |
| 2026-05-05 05:56 | 1.17606 | 143.91014 | 35806 ft | 496 kts | 356° |
| 2026-05-05 05:56 | 1.24492 | 143.90488 | 35803 ft | 496 kts | 356° |
| 2026-05-05 05:57 | 1.31375 | 143.89962 | 35799 ft | 496 kts | 356° |
| 2026-05-05 05:57 | 1.38250 | 143.89436 | 35803 ft | 496 kts | 356° |
| 2026-05-05 05:58 | 1.45156 | 143.88908 | 35803 ft | 496 kts | 356° |
| 2026-05-05 05:58 | 1.52014 | 143.88384 | 35800 ft | 496 kts | 356° |
| 2026-05-05 05:59 | 1.58909 | 143.87856 | 35803 ft | 496 kts | 356° |
| 2026-05-05 05:59 | 1.65803 | 143.87329 | 35801 ft | 497 kts | 356° |
| 2026-05-05 06:00 | 1.72708 | 143.86801 | 35806 ft | 497 kts | 356° |
| 2026-05-05 06:00 | 1.79606 | 143.86274 | 35803 ft | 497 kts | 356° |
| 2026-05-05 06:01 | 1.86454 | 143.85750 | 35810 ft | 497 kts | 356° |
| 2026-05-05 06:01 | 1.93353 | 143.85222 | 35802 ft | 497 kts | 356° |
| 2026-05-05 06:02 | 2.00249 | 143.84695 | 35802 ft | 497 kts | 356° |
| 2026-05-05 06:02 | 2.07151 | 143.84167 | 35802 ft | 496 kts | 356° |
| 2026-05-05 06:03 | 2.14041 | 143.83639 | 35802 ft | 496 kts | 356° |
| 2026-05-05 06:03 | 2.20885 | 143.83116 | 35804 ft | 495 kts | 356° |
| 2026-05-05 06:04 | 2.27760 | 143.82590 | 35802 ft | 495 kts | 356° |
| 2026-05-05 06:04 | 2.34637 | 143.82063 | 35803 ft | 495 kts | 356° |
| 2026-05-05 06:05 | 2.41500 | 143.81538 | 35802 ft | 494 kts | 356° |
| 2026-05-05 06:05 | 2.48363 | 143.81013 | 35803 ft | 494 kts | 356° |
| 2026-05-05 06:06 | 2.55225 | 143.80487 | 35801 ft | 494 kts | 356° |
| 2026-05-05 06:06 | 2.62045 | 143.79965 | 35807 ft | 494 kts | 356° |
| 2026-05-05 06:07 | 2.68904 | 143.79440 | 35802 ft | 494 kts | 356° |
| 2026-05-05 06:07 | 2.75775 | 143.78914 | 35801 ft | 494 kts | 356° |
| 2026-05-05 06:08 | 2.82647 | 143.78388 | 35800 ft | 495 kts | 356° |
| 2026-05-05 06:08 | 2.89480 | 143.77864 | 35801 ft | 495 kts | 356° |
| 2026-05-05 06:09 | 2.96368 | 143.77337 | 35801 ft | 495 kts | 356° |
| 2026-05-05 06:09 | 3.02085 | 143.76899 | 35804 ft | 495 kts | 356° |
| 2026-05-05 06:10 | 3.08974 | 143.76371 | 35804 ft | 496 kts | 356° |
| 2026-05-05 06:10 | 3.16970 | 143.75758 | 35802 ft | 496 kts | 356° |
| 2026-05-05 06:11 | 3.22738 | 143.75316 | 35803 ft | 496 kts | 356° |
| 2026-05-05 06:11 | 3.29582 | 143.74791 | 35803 ft | 496 kts | 356° |
| 2026-05-05 06:12 | 3.36486 | 143.74262 | 35802 ft | 497 kts | 356° |
| 2026-05-05 06:12 | 3.43390 | 143.73732 | 35802 ft | 497 kts | 356° |
| 2026-05-05 06:13 | 3.50283 | 143.73204 | 35799 ft | 497 kts | 356° |
| 2026-05-05 06:13 | 3.57139 | 143.72678 | 35802 ft | 497 kts | 356° |
| 2026-05-05 06:14 | 3.64034 | 143.72149 | 35805 ft | 497 kts | 356° |
| 2026-05-05 06:14 | 3.70937 | 143.71620 | 35806 ft | 497 kts | 356° |
| 2026-05-05 06:15 | 3.77843 | 143.71090 | 35802 ft | 497 kts | 356° |
| 2026-05-05 06:15 | 3.84736 | 143.70561 | 35802 ft | 497 kts | 356° |
| 2026-05-05 06:16 | 3.91628 | 143.70032 | 35800 ft | 496 kts | 357° |
| 2026-05-05 06:16 | 3.98476 | 143.69506 | 35803 ft | 496 kts | 356° |
| 2026-05-05 06:17 | 4.05370 | 143.68977 | 35802 ft | 496 kts | 357° |
| 2026-05-05 06:17 | 4.12252 | 143.68448 | 35800 ft | 496 kts | 357° |
| 2026-05-05 06:18 | 4.19132 | 143.67920 | 35805 ft | 495 kts | 357° |
| 2026-05-05 06:18 | 4.25999 | 143.67392 | 35806 ft | 495 kts | 357° |
| 2026-05-05 06:19 | 4.32874 | 143.66864 | 35803 ft | 495 kts | 357° |
| 2026-05-05 06:19 | 4.39690 | 143.66340 | 35800 ft | 494 kts | 357° |
| 2026-05-05 06:20 | 4.46557 | 143.65812 | 35801 ft | 494 kts | 357° |
| 2026-05-05 06:20 | 4.53429 | 143.65284 | 35805 ft | 494 kts | 357° |
| 2026-05-05 06:21 | 4.60292 | 143.64756 | 35805 ft | 494 kts | 357° |
| 2026-05-05 06:21 | 4.67112 | 143.64232 | 35803 ft | 494 kts | 357° |
| 2026-05-05 06:22 | 4.73972 | 143.63704 | 35802 ft | 494 kts | 357° |
| 2026-05-05 06:22 | 4.80832 | 143.63176 | 35802 ft | 494 kts | 357° |
| 2026-05-05 06:23 | 4.87711 | 143.62647 | 35802 ft | 495 kts | 357° |
| 2026-05-05 06:23 | 4.94583 | 143.62117 | 35802 ft | 495 kts | 357° |
| 2026-05-05 06:24 | 5.01401 | 143.61526 | 35804 ft | 496 kts | 353° |
| 2026-05-05 06:24 | 5.08230 | 143.60468 | 35804 ft | 496 kts | 352° |
| 2026-05-05 06:25 | 5.15053 | 143.59350 | 35802 ft | 497 kts | 352° |
| 2026-05-05 06:25 | 5.21883 | 143.58247 | 35808 ft | 497 kts | 352° |
| 2026-05-05 06:26 | 5.28733 | 143.57159 | 35803 ft | 497 kts | 353° |
| 2026-05-05 06:26 | 5.35569 | 143.56080 | 35803 ft | 497 kts | 353° |
| 2026-05-05 06:27 | 5.45788 | 143.54467 | 35804 ft | 497 kts | 353° |
| 2026-05-05 06:28 | 5.52634 | 143.53384 | 35803 ft | 497 kts | 352° |
| 2026-05-05 06:28 | 5.59478 | 143.52301 | 35808 ft | 497 kts | 352° |
| 2026-05-05 06:29 | 5.66314 | 143.51220 | 35807 ft | 497 kts | 352° |
| 2026-05-05 06:29 | 5.73118 | 143.50143 | 35805 ft | 497 kts | 352° |
| 2026-05-05 06:30 | 5.79953 | 143.49061 | 35801 ft | 497 kts | 353° |
| 2026-05-05 06:30 | 5.86778 | 143.47980 | 35807 ft | 496 kts | 352° |
| 2026-05-05 06:31 | 5.93608 | 143.46898 | 35806 ft | 496 kts | 352° |
| 2026-05-05 06:31 | 6.00419 | 143.45819 | 35803 ft | 495 kts | 352° |
| 2026-05-05 06:32 | 6.07178 | 143.44748 | 35810 ft | 494 kts | 352° |
| 2026-05-05 06:32 | 6.13971 | 143.43671 | 35810 ft | 493 kts | 352° |
| 2026-05-05 06:33 | 6.20767 | 143.42594 | 35811 ft | 493 kts | 352° |
| 2026-05-05 06:33 | 6.27542 | 143.41519 | 35808 ft | 492 kts | 352° |
| 2026-05-05 06:34 | 6.34264 | 143.40453 | 35808 ft | 492 kts | 352° |
| 2026-05-05 06:34 | 6.41028 | 143.39380 | 35809 ft | 492 kts | 352° |
| 2026-05-05 06:35 | 6.47796 | 143.38306 | 35808 ft | 492 kts | 353° |
| 2026-05-05 06:35 | 6.54550 | 143.37234 | 35811 ft | 492 kts | 353° |
| 2026-05-05 06:36 | 6.61314 | 143.36159 | 35809 ft | 492 kts | 352° |
| 2026-05-05 06:36 | 6.68075 | 143.35085 | 35807 ft | 492 kts | 352° |
| 2026-05-05 06:37 | 6.74844 | 143.34010 | 35805 ft | 492 kts | 353° |
| 2026-05-05 06:37 | 6.81574 | 143.32940 | 35809 ft | 493 kts | 353° |
| 2026-05-05 06:38 | 6.88367 | 143.31861 | 35811 ft | 494 kts | 353° |
| 2026-05-05 06:38 | 6.95160 | 143.30780 | 35811 ft | 494 kts | 353° |
| 2026-05-05 06:39 | 7.01955 | 143.29700 | 35805 ft | 494 kts | 353° |
| 2026-05-05 06:39 | 7.08761 | 143.28616 | 35809 ft | 495 kts | 353° |
| 2026-05-05 06:40 | 7.15538 | 143.27538 | 35813 ft | 496 kts | 353° |
| 2026-05-05 06:40 | 7.22357 | 143.26452 | 35816 ft | 496 kts | 353° |
| 2026-05-05 06:41 | 7.29192 | 143.25364 | 35812 ft | 497 kts | 353° |
| 2026-05-05 06:41 | 7.36024 | 143.24275 | 35814 ft | 497 kts | 353° |
| 2026-05-05 06:42 | 7.42871 | 143.23184 | 35815 ft | 498 kts | 353° |
| 2026-05-05 06:42 | 7.49718 | 143.22092 | 35811 ft | 498 kts | 353° |
| 2026-05-05 06:43 | 7.56528 | 143.21007 | 35813 ft | 498 kts | 353° |
| 2026-05-05 06:43 | 7.63391 | 143.19912 | 35814 ft | 499 kts | 353° |
| 2026-05-05 06:44 | 7.70249 | 143.18817 | 35815 ft | 499 kts | 353° |
| 2026-05-05 06:44 | 7.77113 | 143.17722 | 35820 ft | 499 kts | 353° |
| 2026-05-05 06:45 | 7.83982 | 143.16625 | 35816 ft | 499 kts | 353° |
| 2026-05-05 06:45 | 7.90801 | 143.15536 | 35817 ft | 499 kts | 353° |
| 2026-05-05 06:46 | 7.97660 | 143.14440 | 35814 ft | 499 kts | 353° |
| 2026-05-05 06:46 | 8.04519 | 143.13343 | 35817 ft | 499 kts | 353° |
| 2026-05-05 06:47 | 8.11381 | 143.12246 | 35823 ft | 498 kts | 353° |
| 2026-05-05 06:47 | 8.18201 | 143.11156 | 35817 ft | 498 kts | 353° |
| 2026-05-05 06:48 | 8.25049 | 143.10060 | 35816 ft | 498 kts | 353° |
| 2026-05-05 06:48 | 8.31891 | 143.08965 | 35820 ft | 497 kts | 353° |
| 2026-05-05 06:49 | 8.38727 | 143.07870 | 35823 ft | 497 kts | 353° |
| 2026-05-05 06:49 | 8.45573 | 143.06774 | 35825 ft | 497 kts | 353° |
| 2026-05-05 06:50 | 8.52368 | 143.05685 | 35827 ft | 497 kts | 352° |
| 2026-05-05 06:50 | 8.59192 | 143.04591 | 35826 ft | 496 kts | 352° |
| 2026-05-05 06:51 | 8.66026 | 143.03496 | 35827 ft | 496 kts | 352° |
| 2026-05-05 06:51 | 8.72854 | 143.02400 | 35828 ft | 496 kts | 352° |
| 2026-05-05 06:52 | 8.79675 | 143.01306 | 35822 ft | 496 kts | 352° |
| 2026-05-05 06:52 | 8.86508 | 143.00209 | 35824 ft | 497 kts | 352° |
| 2026-05-05 06:53 | 8.93334 | 142.99113 | 35823 ft | 497 kts | 352° |
| 2026-05-05 06:53 | 9.00178 | 142.98013 | 35826 ft | 498 kts | 352° |
| 2026-05-05 06:54 | 9.07018 | 142.96914 | 35826 ft | 498 kts | 352° |
| 2026-05-05 06:54 | 9.13823 | 142.95820 | 35831 ft | 498 kts | 352° |
| 2026-05-05 06:55 | 9.20685 | 142.94717 | 35824 ft | 499 kts | 352° |
| 2026-05-05 06:55 | 9.27544 | 142.93613 | 35825 ft | 499 kts | 352° |
| 2026-05-05 06:56 | 9.34376 | 142.92513 | 35827 ft | 499 kts | 352° |
| 2026-05-05 06:56 | 9.41242 | 142.91408 | 35826 ft | 499 kts | 352° |
| 2026-05-05 06:57 | 9.48112 | 142.90301 | 35827 ft | 499 kts | 352° |
| 2026-05-05 06:57 | 9.53812 | 142.89382 | 35828 ft | 500 kts | 352° |
| 2026-05-05 06:58 | 9.60679 | 142.88275 | 35831 ft | 499 kts | 352° |
| 2026-05-05 06:58 | 9.67551 | 142.87167 | 35825 ft | 500 kts | 352° |
| 2026-05-05 06:59 | 9.74438 | 142.86056 | 35830 ft | 500 kts | 352° |
| 2026-05-05 06:59 | 9.81261 | 142.84954 | 35827 ft | 500 kts | 352° |
| 2026-05-05 07:00 | 9.88134 | 142.83843 | 35831 ft | 500 kts | 352° |
| 2026-05-05 07:00 | 9.94874 | 142.82081 | 35828 ft | 502 kts | 340° |
| 2026-05-05 07:01 | 10.01369 | 142.79467 | 35836 ft | 503 kts | 339° |
| 2026-05-05 07:01 | 10.07872 | 142.76816 | 35833 ft | 503 kts | 339° |
| 2026-05-05 07:02 | 10.14385 | 142.74195 | 35840 ft | 503 kts | 339° |
| 2026-05-05 07:02 | 10.20904 | 142.71595 | 35834 ft | 503 kts | 339° |
| 2026-05-05 07:03 | 10.27428 | 142.68999 | 35837 ft | 503 kts | 339° |
| 2026-05-05 07:03 | 10.33911 | 142.66417 | 35833 ft | 502 kts | 339° |
| 2026-05-05 07:04 | 10.40414 | 142.63823 | 35831 ft | 501 kts | 339° |
| 2026-05-05 07:04 | 10.46905 | 142.61234 | 35836 ft | 500 kts | 339° |
| 2026-05-05 07:05 | 10.53395 | 142.58642 | 35853 ft | 500 kts | 339° |
| 2026-05-05 07:05 | 10.59827 | 142.56074 | 35837 ft | 499 kts | 339° |
| 2026-05-05 07:06 | 10.66292 | 142.53491 | 35832 ft | 498 kts | 339° |
| 2026-05-05 07:06 | 10.72749 | 142.50910 | 35851 ft | 497 kts | 339° |
| 2026-05-05 07:07 | 10.79194 | 142.48332 | 35839 ft | 497 kts | 339° |
| 2026-05-05 07:07 | 10.85622 | 142.45760 | 35838 ft | 495 kts | 339° |
| 2026-05-05 07:08 | 10.91997 | 142.43208 | 35843 ft | 494 kts | 339° |
| 2026-05-05 07:08 | 10.98396 | 142.40645 | 35844 ft | 494 kts | 339° |
| 2026-05-05 07:09 | 11.04786 | 142.38085 | 35849 ft | 493 kts | 339° |
| 2026-05-05 07:09 | 11.11178 | 142.35523 | 35845 ft | 493 kts | 338° |
| 2026-05-05 07:10 | 11.17562 | 142.32963 | 35840 ft | 493 kts | 338° |
| 2026-05-05 07:10 | 11.23941 | 142.30403 | 35844 ft | 493 kts | 338° |
| 2026-05-05 07:11 | 11.30326 | 142.27840 | 35849 ft | 492 kts | 338° |
| 2026-05-05 07:11 | 11.36663 | 142.25295 | 35845 ft | 492 kts | 338° |
| 2026-05-05 07:12 | 11.43039 | 142.22734 | 35844 ft | 492 kts | 338° |
| 2026-05-05 07:12 | 11.49403 | 142.20175 | 35856 ft | 491 kts | 338° |
| 2026-05-05 07:13 | 11.55765 | 142.17616 | 35841 ft | 490 kts | 338° |
| 2026-05-05 07:13 | 11.62115 | 142.15061 | 35844 ft | 490 kts | 337° |
| 2026-05-05 07:14 | 11.68421 | 142.12522 | 35856 ft | 489 kts | 337° |
| 2026-05-05 07:14 | 11.74753 | 142.09972 | 35863 ft | 489 kts | 337° |
| 2026-05-05 07:15 | 11.81080 | 142.07422 | 35840 ft | 488 kts | 338° |
| 2026-05-05 07:15 | 11.87365 | 142.04888 | 35850 ft | 488 kts | 338° |
| 2026-05-05 07:16 | 11.93676 | 142.02343 | 35859 ft | 487 kts | 337° |
| 2026-05-05 07:16 | 11.99987 | 141.99796 | 35846 ft | 486 kts | 337° |
| 2026-05-05 07:17 | 12.06267 | 141.97260 | 35849 ft | 484 kts | 336° |
| 2026-05-05 07:17 | 12.12528 | 141.94730 | 35849 ft | 483 kts | 337° |
| 2026-05-05 07:18 | 12.18735 | 141.92221 | 35850 ft | 483 kts | 337° |
| 2026-05-05 07:18 | 12.24989 | 141.89692 | 35856 ft | 483 kts | 337° |
| 2026-05-05 07:19 | 12.31253 | 141.87158 | 35871 ft | 483 kts | 336° |
| 2026-05-05 07:19 | 12.37511 | 141.84624 | 35851 ft | 483 kts | 337° |
| 2026-05-05 07:20 | 12.43776 | 141.82086 | 35858 ft | 483 kts | 337° |
| 2026-05-05 07:20 | 12.50030 | 141.79551 | 35870 ft | 483 kts | 337° |
| 2026-05-05 07:21 | 12.56249 | 141.77030 | 35853 ft | 483 kts | 337° |
| 2026-05-05 07:21 | 12.62494 | 141.74497 | 35874 ft | 481 kts | 336° |
| 2026-05-05 07:22 | 12.68716 | 141.71972 | 35852 ft | 481 kts | 337° |
| 2026-05-05 07:22 | 12.74936 | 141.69446 | 35861 ft | 480 kts | 337° |
| 2026-05-05 07:23 | 12.81144 | 141.66923 | 35877 ft | 479 kts | 337° |
| 2026-05-05 07:23 | 12.87316 | 141.64414 | 35866 ft | 480 kts | 337° |
| 2026-05-05 07:24 | 12.93516 | 141.61892 | 35861 ft | 479 kts | 336° |
| 2026-05-05 07:24 | 12.99716 | 141.59369 | 35860 ft | 480 kts | 336° |
| 2026-05-05 07:25 | 13.05917 | 141.56844 | 35872 ft | 480 kts | 336° |
| 2026-05-05 07:25 | 13.12125 | 141.54315 | 35874 ft | 480 kts | 336° |
| 2026-05-05 07:26 | 13.18340 | 141.51782 | 35871 ft | 480 kts | 336° |
| 2026-05-05 07:26 | 13.24516 | 141.49263 | 35877 ft | 480 kts | 336° |
| 2026-05-05 07:27 | 13.30737 | 141.46724 | 35874 ft | 480 kts | 336° |
| 2026-05-05 07:27 | 13.36958 | 141.44184 | 35874 ft | 480 kts | 336° |
| 2026-05-05 07:28 | 13.43181 | 141.41642 | 35877 ft | 481 kts | 336° |
| 2026-05-05 07:28 | 13.49403 | 141.39099 | 35885 ft | 481 kts | 336° |
| 2026-05-05 07:29 | 13.55583 | 141.36571 | 35879 ft | 481 kts | 336° |
| 2026-05-05 07:29 | 13.61802 | 141.34026 | 35882 ft | 481 kts | 336° |
| 2026-05-05 07:30 | 13.68027 | 141.31477 | 35878 ft | 481 kts | 336° |
| 2026-05-05 07:30 | 13.77361 | 141.27653 | 35882 ft | 481 kts | 336° |
| 2026-05-05 07:31 | 13.83534 | 141.25122 | 35884 ft | 480 kts | 336° |
| 2026-05-05 07:31 | 13.89754 | 141.22570 | 35883 ft | 480 kts | 336° |
| 2026-05-05 07:32 | 13.95975 | 141.20016 | 35879 ft | 480 kts | 336° |
| 2026-05-05 07:32 | 14.02147 | 141.17481 | 35891 ft | 480 kts | 336° |
| 2026-05-05 07:33 | 14.08353 | 141.14930 | 35888 ft | 480 kts | 336° |
| 2026-05-05 07:33 | 14.14555 | 141.12380 | 35891 ft | 480 kts | 336° |
| 2026-05-05 07:34 | 14.20753 | 141.09829 | 35888 ft | 479 kts | 336° |
| 2026-05-05 07:34 | 14.26941 | 141.07282 | 35901 ft | 479 kts | 335° |
| 2026-05-05 07:35 | 14.33125 | 141.04734 | 35896 ft | 478 kts | 335° |
| 2026-05-05 07:35 | 14.39302 | 141.02188 | 35893 ft | 478 kts | 335° |
| 2026-05-05 07:36 | 14.45444 | 140.99655 | 35890 ft | 477 kts | 335° |
| 2026-05-05 07:36 | 14.51608 | 140.97111 | 35896 ft | 477 kts | 335° |
| 2026-05-05 07:37 | 14.57768 | 140.94567 | 35898 ft | 477 kts | 335° |
| 2026-05-05 07:37 | 14.63938 | 140.92017 | 35898 ft | 477 kts | 335° |
| 2026-05-05 07:38 | 14.70072 | 140.89481 | 35899 ft | 477 kts | 335° |
| 2026-05-05 07:38 | 14.76233 | 140.86931 | 35899 ft | 477 kts | 335° |
| 2026-05-05 07:39 | 14.82405 | 140.84376 | 35898 ft | 477 kts | 335° |
| 2026-05-05 07:39 | 14.88535 | 140.81755 | 35899 ft | 476 kts | 333° |
| 2026-05-05 07:40 | 14.94544 | 140.78895 | 35901 ft | 475 kts | 332° |
| 2026-05-05 07:40 | 15.00536 | 140.75995 | 35901 ft | 475 kts | 332° |
| 2026-05-05 07:41 | 15.06492 | 140.73147 | 35908 ft | 475 kts | 332° |
| 2026-05-05 07:41 | 15.12517 | 140.70290 | 35904 ft | 475 kts | 333° |
| 2026-05-05 07:42 | 15.18525 | 140.67447 | 35906 ft | 475 kts | 333° |
| 2026-05-05 07:42 | 15.24540 | 140.64599 | 35906 ft | 475 kts | 333° |
| 2026-05-05 07:43 | 15.30549 | 140.61750 | 35910 ft | 475 kts | 332° |
| 2026-05-05 07:43 | 15.36552 | 140.58902 | 35909 ft | 475 kts | 332° |
| 2026-05-05 07:44 | 15.42522 | 140.56067 | 35912 ft | 474 kts | 332° |
| 2026-05-05 07:44 | 15.47556 | 140.53676 | 35912 ft | 474 kts | 332° |
| 2026-05-05 07:45 | 15.53521 | 140.50840 | 35923 ft | 474 kts | 332° |
| 2026-05-05 07:45 | 15.59529 | 140.47982 | 35917 ft | 474 kts | 332° |
| 2026-05-05 07:46 | 15.65543 | 140.45120 | 35917 ft | 475 kts | 332° |
| 2026-05-05 07:46 | 15.71510 | 140.42278 | 35918 ft | 475 kts | 332° |
| 2026-05-05 07:47 | 15.77517 | 140.39415 | 35928 ft | 475 kts | 332° |
| 2026-05-05 07:47 | 15.83533 | 140.36546 | 35924 ft | 475 kts | 332° |
| 2026-05-05 07:48 | 15.89539 | 140.33680 | 35924 ft | 475 kts | 332° |
| 2026-05-05 07:48 | 15.95512 | 140.30828 | 35924 ft | 475 kts | 332° |
| 2026-05-05 07:49 | 16.01520 | 140.27957 | 35923 ft | 475 kts | 332° |
| 2026-05-05 07:49 | 16.07529 | 140.25084 | 35925 ft | 475 kts | 332° |
| 2026-05-05 07:50 | 16.13535 | 140.22210 | 35924 ft | 475 kts | 332° |
| 2026-05-05 07:50 | 16.19552 | 140.19329 | 35922 ft | 475 kts | 332° |
| 2026-05-05 07:51 | 16.25530 | 140.16465 | 35929 ft | 475 kts | 332° |
| 2026-05-05 07:51 | 16.31539 | 140.13584 | 35931 ft | 475 kts | 333° |
| 2026-05-05 07:52 | 16.37554 | 140.10698 | 35934 ft | 475 kts | 333° |
| 2026-05-05 07:52 | 16.43563 | 140.07813 | 35936 ft | 475 kts | 333° |
| 2026-05-05 07:53 | 16.49566 | 140.04929 | 35931 ft | 475 kts | 333° |
| 2026-05-05 07:53 | 16.55540 | 140.02057 | 35937 ft | 475 kts | 333° |
| 2026-05-05 07:54 | 16.61549 | 139.99166 | 35936 ft | 475 kts | 333° |
| 2026-05-05 07:54 | 16.67553 | 139.96276 | 35934 ft | 475 kts | 333° |
| 2026-05-05 07:55 | 16.73565 | 139.93380 | 35941 ft | 475 kts | 333° |
| 2026-05-05 07:55 | 16.79571 | 139.90484 | 35940 ft | 475 kts | 333° |
| 2026-05-05 07:56 | 16.85585 | 139.87583 | 35936 ft | 475 kts | 333° |
| 2026-05-05 07:56 | 16.91546 | 139.84705 | 35940 ft | 475 kts | 333° |
| 2026-05-05 07:57 | 16.97551 | 139.81804 | 35942 ft | 475 kts | 333° |
| 2026-05-05 07:57 | 17.03565 | 139.78896 | 35943 ft | 476 kts | 333° |
| 2026-05-05 07:58 | 17.09578 | 139.75987 | 35940 ft | 476 kts | 333° |
| 2026-05-05 07:58 | 17.15594 | 139.73075 | 35939 ft | 476 kts | 333° |
| 2026-05-05 07:59 | 17.21568 | 139.70181 | 35945 ft | 476 kts | 333° |
| 2026-05-05 07:59 | 17.27594 | 139.67259 | 35945 ft | 476 kts | 333° |
| 2026-05-05 08:00 | 17.33608 | 139.64341 | 35951 ft | 476 kts | 333° |
| 2026-05-05 08:00 | 17.39615 | 139.61425 | 35953 ft | 476 kts | 333° |
| 2026-05-05 08:01 | 17.45625 | 139.58504 | 35947 ft | 476 kts | 333° |
| 2026-05-05 08:01 | 17.51626 | 139.55586 | 35953 ft | 476 kts | 333° |
| 2026-05-05 08:02 | 17.57594 | 139.52683 | 35952 ft | 476 kts | 333° |
| 2026-05-05 08:02 | 17.63602 | 139.49757 | 35953 ft | 476 kts | 333° |
| 2026-05-05 08:03 | 17.69611 | 139.46829 | 35955 ft | 476 kts | 333° |
| 2026-05-05 08:03 | 17.75617 | 139.43900 | 35956 ft | 476 kts | 333° |
| 2026-05-05 08:04 | 17.81618 | 139.40971 | 35954 ft | 476 kts | 333° |
| 2026-05-05 08:04 | 17.87633 | 139.38033 | 35953 ft | 476 kts | 333° |
| 2026-05-05 08:05 | 17.93607 | 139.35113 | 35958 ft | 476 kts | 333° |
| 2026-05-05 08:05 | 17.99620 | 139.32172 | 35955 ft | 477 kts | 334° |
| 2026-05-05 08:06 | 18.05646 | 139.29222 | 35973 ft | 477 kts | 333° |
| 2026-05-05 08:06 | 18.11679 | 139.26267 | 35957 ft | 478 kts | 334° |
| 2026-05-05 08:07 | 18.17708 | 139.23312 | 35969 ft | 477 kts | 333° |
| 2026-05-05 08:07 | 18.23693 | 139.20375 | 35955 ft | 477 kts | 334° |
| 2026-05-05 08:08 | 18.29713 | 139.17419 | 35969 ft | 477 kts | 334° |
| 2026-05-05 08:08 | 18.35731 | 139.14462 | 35963 ft | 477 kts | 334° |
| 2026-05-05 08:09 | 18.41756 | 139.11499 | 35971 ft | 478 kts | 334° |
| 2026-05-05 08:09 | 18.47797 | 139.08525 | 35964 ft | 479 kts | 334° |
| 2026-05-05 08:10 | 18.53813 | 139.05563 | 35973 ft | 481 kts | 334° |
| 2026-05-05 08:10 | 18.59887 | 139.02569 | 35971 ft | 482 kts | 334° |
| 2026-05-05 08:11 | 18.65974 | 138.99566 | 35971 ft | 483 kts | 334° |
| 2026-05-05 08:11 | 18.72073 | 138.96555 | 35975 ft | 484 kts | 334° |
| 2026-05-05 08:12 | 18.78186 | 138.93535 | 35973 ft | 485 kts | 334° |
| 2026-05-05 08:12 | 18.84262 | 138.90530 | 35971 ft | 485 kts | 334° |
| 2026-05-05 08:13 | 18.90375 | 138.87505 | 35975 ft | 485 kts | 334° |
| 2026-05-05 08:13 | 18.96485 | 138.84479 | 35978 ft | 484 kts | 334° |
| 2026-05-05 08:14 | 19.02601 | 138.81447 | 35974 ft | 484 kts | 334° |
| 2026-05-05 08:14 | 19.08659 | 138.78442 | 35982 ft | 484 kts | 334° |
| 2026-05-05 08:15 | 19.14760 | 138.75413 | 35977 ft | 484 kts | 334° |
| 2026-05-05 08:15 | 19.20860 | 138.72382 | 35977 ft | 484 kts | 334° |
| 2026-05-05 08:16 | 19.26953 | 138.69352 | 35986 ft | 483 kts | 334° |
| 2026-05-05 08:16 | 19.33002 | 138.66341 | 35986 ft | 483 kts | 334° |
| 2026-05-05 08:17 | 19.39087 | 138.63310 | 35985 ft | 483 kts | 334° |
| 2026-05-05 08:17 | 19.45180 | 138.60272 | 35983 ft | 483 kts | 334° |
| 2026-05-05 08:18 | 19.51266 | 138.57235 | 35985 ft | 483 kts | 334° |
| 2026-05-05 08:18 | 19.57358 | 138.54193 | 35983 ft | 484 kts | 334° |
| 2026-05-05 08:19 | 19.63447 | 138.51149 | 35987 ft | 484 kts | 334° |
| 2026-05-05 08:19 | 19.69540 | 138.48102 | 35985 ft | 484 kts | 334° |
| 2026-05-05 08:20 | 19.75600 | 138.45068 | 35984 ft | 484 kts | 334° |
| 2026-05-05 08:20 | 19.81698 | 138.42012 | 35987 ft | 484 kts | 334° |
| 2026-05-05 08:21 | 19.87790 | 138.38957 | 35989 ft | 484 kts | 333° |
| 2026-05-05 08:21 | 19.93890 | 138.35895 | 35992 ft | 484 kts | 333° |
| 2026-05-05 08:22 | 19.99990 | 138.32831 | 35991 ft | 484 kts | 334° |
| 2026-05-05 08:22 | 20.06051 | 138.29783 | 35994 ft | 484 kts | 333° |
| 2026-05-05 08:23 | 20.12156 | 138.26711 | 35998 ft | 485 kts | 333° |
| 2026-05-05 08:23 | 20.18252 | 138.23640 | 35997 ft | 484 kts | 333° |
| 2026-05-05 08:24 | 20.24350 | 138.20566 | 36002 ft | 484 kts | 333° |
| 2026-05-05 08:24 | 20.30404 | 138.17511 | 35993 ft | 483 kts | 333° |
| 2026-05-05 08:25 | 20.36480 | 138.14444 | 35992 ft | 483 kts | 333° |
| 2026-05-05 08:25 | 20.42553 | 138.11374 | 36010 ft | 481 kts | 333° |
| 2026-05-05 08:26 | 20.48604 | 138.08313 | 35994 ft | 481 kts | 333° |
| 2026-05-05 08:26 | 20.54607 | 138.05274 | 36003 ft | 481 kts | 333° |
| 2026-05-05 08:27 | 20.60656 | 138.02208 | 35997 ft | 482 kts | 333° |
| 2026-05-05 08:27 | 20.66717 | 137.99134 | 36015 ft | 482 kts | 333° |
| 2026-05-05 08:28 | 20.72795 | 137.96048 | 36006 ft | 483 kts | 333° |
| 2026-05-05 08:28 | 20.78877 | 137.92957 | 36013 ft | 483 kts | 333° |
| 2026-05-05 08:29 | 20.84912 | 137.89888 | 36007 ft | 483 kts | 333° |
| 2026-05-05 08:30 | 20.94007 | 137.85256 | 36009 ft | 482 kts | 333° |
| 2026-05-05 08:30 | 21.00054 | 137.82160 | 36008 ft | 481 kts | 332° |
| 2026-05-05 08:31 | 21.04928 | 137.79297 | 36012 ft | 480 kts | 329° |
| 2026-05-05 08:31 | 21.10717 | 137.75749 | 36019 ft | 479 kts | 329° |
| 2026-05-05 08:32 | 21.16514 | 137.72191 | 36014 ft | 480 kts | 329° |
| 2026-05-05 08:32 | 21.22314 | 137.68652 | 36013 ft | 479 kts | 329° |
| 2026-05-05 08:33 | 21.28114 | 137.65120 | 36022 ft | 480 kts | 329° |
| 2026-05-05 08:33 | 21.33932 | 137.61578 | 36017 ft | 480 kts | 329° |
| 2026-05-05 08:34 | 21.39759 | 137.58026 | 36014 ft | 481 kts | 329° |
| 2026-05-05 08:34 | 21.45545 | 137.54495 | 36014 ft | 481 kts | 329° |
| 2026-05-05 08:35 | 21.51373 | 137.50934 | 36017 ft | 482 kts | 329° |
| 2026-05-05 08:35 | 21.57196 | 137.47374 | 36016 ft | 482 kts | 329° |
| 2026-05-05 08:36 | 21.63028 | 137.43804 | 36018 ft | 482 kts | 328° |
| 2026-05-05 08:36 | 21.68857 | 137.40234 | 36017 ft | 482 kts | 329° |
| 2026-05-05 08:37 | 21.74649 | 137.36682 | 36012 ft | 482 kts | 328° |
| 2026-05-05 08:37 | 21.80492 | 137.33096 | 36017 ft | 482 kts | 328° |
| 2026-05-05 08:38 | 21.86319 | 137.29516 | 36016 ft | 482 kts | 328° |
| 2026-05-05 08:38 | 21.92148 | 137.25932 | 36019 ft | 482 kts | 328° |
| 2026-05-05 08:39 | 21.97982 | 137.22340 | 36017 ft | 483 kts | 328° |
| 2026-05-05 08:39 | 22.03813 | 137.18748 | 36018 ft | 483 kts | 328° |
| 2026-05-05 08:40 | 22.09610 | 137.15173 | 36026 ft | 483 kts | 328° |
| 2026-05-05 08:40 | 22.15445 | 137.11571 | 36026 ft | 482 kts | 328° |
| 2026-05-05 08:41 | 22.21243 | 137.07989 | 36025 ft | 482 kts | 328° |
| 2026-05-05 08:41 | 22.27067 | 137.04387 | 36025 ft | 482 kts | 328° |
| 2026-05-05 08:42 | 22.32885 | 137.00785 | 36028 ft | 482 kts | 328° |
| 2026-05-05 08:42 | 22.38705 | 136.97179 | 36021 ft | 481 kts | 328° |
| 2026-05-05 08:43 | 22.44522 | 136.93570 | 36021 ft | 481 kts | 328° |
| 2026-05-05 08:43 | 22.50291 | 136.89989 | 36032 ft | 481 kts | 327° |
| 2026-05-05 08:44 | 22.56094 | 136.86382 | 36020 ft | 481 kts | 327° |
| 2026-05-05 08:44 | 22.61901 | 136.82769 | 36031 ft | 480 kts | 327° |
| 2026-05-05 08:45 | 22.67703 | 136.79156 | 36025 ft | 480 kts | 327° |
| 2026-05-05 08:45 | 22.73454 | 136.75572 | 36019 ft | 480 kts | 327° |
| 2026-05-05 08:46 | 22.79244 | 136.71959 | 36030 ft | 480 kts | 327° |
| 2026-05-05 08:46 | 22.85038 | 136.68340 | 36053 ft | 481 kts | 327° |
| 2026-05-05 08:46 | 22.87941 | 136.66525 | 36307 ft | 482 kts | 327° |
| 2026-05-05 08:47 | 22.90849 | 136.64707 | 36728 ft | 479 kts | 326° |
| 2026-05-05 08:47 | 22.93726 | 136.62909 | 37149 ft | 477 kts | 326° |
| 2026-05-05 08:47 | 22.96597 | 136.61112 | 37541 ft | 475 kts | 326° |
| 2026-05-05 08:47 | 22.99457 | 136.59322 | 37862 ft | 474 kts | 326° |
| 2026-05-05 08:48 | 23.02288 | 136.57546 | 37965 ft | 477 kts | 326° |
| 2026-05-05 08:48 | 23.08051 | 136.53931 | 38046 ft | 477 kts | 326° |
| 2026-05-05 08:49 | 23.13782 | 136.50336 | 38026 ft | 473 kts | 326° |
| 2026-05-05 08:49 | 23.19468 | 136.46764 | 38028 ft | 470 kts | 326° |
| 2026-05-05 08:50 | 23.25121 | 136.43209 | 38030 ft | 468 kts | 326° |
| 2026-05-05 08:50 | 23.30761 | 136.39657 | 38040 ft | 469 kts | 325° |
| 2026-05-05 08:51 | 23.36409 | 136.36097 | 38033 ft | 469 kts | 325° |
| 2026-05-05 08:51 | 23.42064 | 136.32529 | 38038 ft | 471 kts | 325° |
| 2026-05-05 08:52 | 23.47699 | 136.28971 | 38049 ft | 472 kts | 325° |
| 2026-05-05 08:52 | 23.53393 | 136.25372 | 38038 ft | 473 kts | 325° |
| 2026-05-05 08:53 | 23.59098 | 136.21763 | 38033 ft | 474 kts | 325° |
| 2026-05-05 08:53 | 23.64810 | 136.18145 | 38035 ft | 474 kts | 325° |
| 2026-05-05 08:54 | 23.70486 | 136.14547 | 38036 ft | 474 kts | 325° |
| 2026-05-05 08:54 | 23.76196 | 136.10923 | 38036 ft | 475 kts | 325° |
| 2026-05-05 08:55 | 23.81909 | 136.07294 | 38034 ft | 474 kts | 325° |
| 2026-05-05 08:55 | 23.87617 | 136.03665 | 38044 ft | 474 kts | 325° |
| 2026-05-05 08:56 | 23.93324 | 136.00031 | 38036 ft | 474 kts | 325° |
| 2026-05-05 08:56 | 23.98973 | 135.96432 | 38036 ft | 473 kts | 325° |
| 2026-05-05 08:57 | 24.04663 | 135.92803 | 38049 ft | 472 kts | 325° |
| 2026-05-05 08:57 | 24.10338 | 135.89179 | 38039 ft | 472 kts | 325° |
| 2026-05-05 08:58 | 24.16007 | 135.85555 | 38043 ft | 471 kts | 325° |
| 2026-05-05 08:58 | 24.21632 | 135.81956 | 38057 ft | 470 kts | 324° |
| 2026-05-05 08:59 | 24.27281 | 135.78337 | 38043 ft | 470 kts | 324° |
| 2026-05-05 08:59 | 24.32930 | 135.74715 | 38043 ft | 469 kts | 324° |
| 2026-05-05 09:00 | 24.38563 | 135.71100 | 38042 ft | 468 kts | 324° |
| 2026-05-05 09:00 | 24.44175 | 135.67494 | 38047 ft | 468 kts | 324° |
| 2026-05-05 09:01 | 24.49793 | 135.63879 | 38049 ft | 467 kts | 324° |
| 2026-05-05 09:01 | 24.55400 | 135.60269 | 38042 ft | 467 kts | 324° |
| 2026-05-05 09:02 | 24.60964 | 135.56683 | 38053 ft | 466 kts | 324° |
| 2026-05-05 09:02 | 24.66563 | 135.53070 | 38045 ft | 466 kts | 324° |
| 2026-05-05 09:03 | 24.72158 | 135.49456 | 38047 ft | 466 kts | 324° |
| 2026-05-05 09:03 | 24.77753 | 135.45838 | 38050 ft | 466 kts | 324° |
| 2026-05-05 09:04 | 24.83334 | 135.42225 | 38050 ft | 466 kts | 324° |
| 2026-05-05 09:04 | 24.88917 | 135.38608 | 38051 ft | 465 kts | 324° |
| 2026-05-05 09:05 | 24.94497 | 135.34988 | 38066 ft | 465 kts | 324° |
| 2026-05-05 09:05 | 25.00038 | 135.31390 | 38053 ft | 465 kts | 324° |
| 2026-05-05 09:06 | 25.05612 | 135.27767 | 38046 ft | 465 kts | 324° |
| 2026-05-05 09:06 | 25.11193 | 135.24135 | 38067 ft | 464 kts | 324° |
| 2026-05-05 09:07 | 25.16755 | 135.20511 | 38059 ft | 465 kts | 323° |
| 2026-05-05 09:07 | 25.22334 | 135.16873 | 38054 ft | 465 kts | 323° |
| 2026-05-05 09:08 | 25.27906 | 135.13235 | 38053 ft | 465 kts | 323° |
| 2026-05-05 09:08 | 25.33442 | 135.09617 | 38052 ft | 465 kts | 323° |
| 2026-05-05 09:09 | 25.39026 | 135.05963 | 38067 ft | 465 kts | 323° |
| 2026-05-05 09:09 | 25.44593 | 135.02316 | 38055 ft | 465 kts | 323° |
| 2026-05-05 09:10 | 25.50146 | 134.98652 | 38065 ft | 463 kts | 321° |
| 2026-05-05 09:10 | 25.55455 | 134.94701 | 38053 ft | 461 kts | 320° |
| 2026-05-05 09:11 | 25.60737 | 134.90652 | 38063 ft | 461 kts | 319° |
| 2026-05-05 09:11 | 25.66018 | 134.86613 | 38062 ft | 461 kts | 320° |
| 2026-05-05 09:12 | 25.71302 | 134.82588 | 38060 ft | 461 kts | 320° |
| 2026-05-05 09:12 | 25.76565 | 134.78585 | 38081 ft | 460 kts | 320° |
| 2026-05-05 09:13 | 25.81846 | 134.74563 | 38067 ft | 461 kts | 319° |
| 2026-05-05 09:13 | 25.87132 | 134.70533 | 38060 ft | 460 kts | 319° |
| 2026-05-05 09:14 | 25.92417 | 134.66498 | 38071 ft | 460 kts | 319° |
| 2026-05-05 09:14 | 25.97691 | 134.62468 | 38070 ft | 460 kts | 319° |
| 2026-05-05 09:15 | 26.02967 | 134.58431 | 38080 ft | 460 kts | 319° |
| 2026-05-05 09:15 | 26.08205 | 134.54419 | 38091 ft | 460 kts | 319° |
| 2026-05-05 09:16 | 26.13482 | 134.50372 | 38082 ft | 460 kts | 319° |
| 2026-05-05 09:16 | 26.18757 | 134.46322 | 38077 ft | 460 kts | 319° |
| 2026-05-05 09:17 | 26.24034 | 134.42267 | 38078 ft | 460 kts | 319° |
| 2026-05-05 09:17 | 26.28417 | 134.38895 | 38089 ft | 461 kts | 319° |
| 2026-05-05 09:18 | 26.34574 | 134.34153 | 38083 ft | 462 kts | 319° |
| 2026-05-05 09:18 | 26.38970 | 134.30763 | 38102 ft | 462 kts | 319° |
| 2026-05-05 09:19 | 26.44256 | 134.26683 | 38093 ft | 462 kts | 319° |
| 2026-05-05 09:19 | 26.49555 | 134.22589 | 38093 ft | 462 kts | 319° |
| 2026-05-05 09:20 | 26.54840 | 134.18500 | 38094 ft | 461 kts | 319° |
| 2026-05-05 09:20 | 26.60103 | 134.14424 | 38096 ft | 459 kts | 319° |
| 2026-05-05 09:21 | 26.65348 | 134.10356 | 38084 ft | 458 kts | 319° |
| 2026-05-05 09:21 | 26.70549 | 134.06318 | 38130 ft | 457 kts | 318° |
| 2026-05-05 09:22 | 26.75762 | 134.02268 | 38110 ft | 455 kts | 318° |
| 2026-05-05 09:22 | 26.80958 | 133.98228 | 38105 ft | 454 kts | 318° |
| 2026-05-05 09:23 | 26.86137 | 133.94194 | 38106 ft | 453 kts | 318° |
| 2026-05-05 09:23 | 26.91308 | 133.90162 | 38111 ft | 452 kts | 318° |
| 2026-05-05 09:24 | 26.96468 | 133.86132 | 38109 ft | 452 kts | 318° |
| 2026-05-05 09:24 | 27.01632 | 133.82094 | 38141 ft | 452 kts | 317° |
| 2026-05-05 09:25 | 27.06769 | 133.78074 | 38119 ft | 453 kts | 317° |
| 2026-05-05 09:25 | 27.11948 | 133.74015 | 38109 ft | 454 kts | 317° |
| 2026-05-05 09:26 | 27.17133 | 133.69949 | 38116 ft | 454 kts | 317° |
| 2026-05-05 09:26 | 27.22321 | 133.65875 | 38115 ft | 455 kts | 317° |
| 2026-05-05 09:27 | 27.27507 | 133.61797 | 38116 ft | 456 kts | 317° |
| 2026-05-05 09:27 | 27.32684 | 133.57722 | 38123 ft | 457 kts | 317° |
| 2026-05-05 09:28 | 27.37911 | 133.53602 | 38130 ft | 459 kts | 317° |
| 2026-05-05 09:28 | 27.43164 | 133.49457 | 38125 ft | 461 kts | 317° |
| 2026-05-05 09:29 | 27.48425 | 133.45302 | 38124 ft | 463 kts | 317° |
| 2026-05-05 09:29 | 27.53675 | 133.41151 | 38135 ft | 464 kts | 317° |
| 2026-05-05 09:30 | 27.58961 | 133.36966 | 38126 ft | 464 kts | 317° |
| 2026-05-05 09:30 | 27.64245 | 133.32778 | 38128 ft | 464 kts | 317° |
| 2026-05-05 09:31 | 27.69492 | 133.28618 | 38127 ft | 455 kts | 317° |
| 2026-05-05 09:31 | 27.74636 | 133.24533 | 38127 ft | 451 kts | 316° |
| 2026-05-05 09:32 | 27.79757 | 133.20452 | 38139 ft | 450 kts | 316° |
| 2026-05-05 09:32 | 27.84849 | 133.16394 | 38133 ft | 450 kts | 316° |
| 2026-05-05 09:33 | 27.89959 | 133.12321 | 38134 ft | 449 kts | 316° |
| 2026-05-05 09:33 | 27.95075 | 133.08242 | 38137 ft | 450 kts | 316° |
| 2026-05-05 09:34 | 28.00195 | 133.04154 | 38141 ft | 451 kts | 316° |
| 2026-05-05 09:34 | 28.05330 | 133.00048 | 38136 ft | 452 kts | 316° |
| 2026-05-05 09:35 | 28.10452 | 132.95948 | 38131 ft | 454 kts | 316° |
| 2026-05-05 09:35 | 28.18209 | 132.89730 | 38137 ft | 456 kts | 316° |
| 2026-05-05 09:36 | 28.23395 | 132.85566 | 38130 ft | 457 kts | 316° |
| 2026-05-05 09:36 | 28.28587 | 132.81392 | 38161 ft | 457 kts | 316° |
| 2026-05-05 09:37 | 28.33792 | 132.77203 | 38139 ft | 458 kts | 316° |
| 2026-05-05 09:37 | 28.38962 | 132.73038 | 38141 ft | 458 kts | 316° |
| 2026-05-05 09:38 | 28.44163 | 132.68844 | 38138 ft | 458 kts | 316° |
| 2026-05-05 09:38 | 28.49376 | 132.64636 | 38135 ft | 458 kts | 316° |
| 2026-05-05 09:39 | 28.54533 | 132.60465 | 38148 ft | 457 kts | 316° |
| 2026-05-05 09:39 | 28.59707 | 132.56276 | 38136 ft | 456 kts | 315° |
| 2026-05-05 09:40 | 28.64881 | 132.52082 | 38130 ft | 456 kts | 315° |
| 2026-05-05 09:40 | 28.70048 | 132.47888 | 38131 ft | 455 kts | 315° |
| 2026-05-05 09:41 | 28.75175 | 132.43721 | 38130 ft | 454 kts | 315° |
| 2026-05-05 09:41 | 28.80321 | 132.39533 | 38146 ft | 454 kts | 315° |
| 2026-05-05 09:42 | 28.85462 | 132.35345 | 38132 ft | 454 kts | 315° |
| 2026-05-05 09:42 | 28.90601 | 132.31152 | 38155 ft | 454 kts | 315° |
| 2026-05-05 09:43 | 28.95739 | 132.26956 | 38133 ft | 453 kts | 315° |
| 2026-05-05 09:43 | 29.00830 | 132.22794 | 38131 ft | 452 kts | 315° |
| 2026-05-05 09:44 | 29.05940 | 132.18610 | 38139 ft | 451 kts | 315° |
| 2026-05-05 09:44 | 29.11041 | 132.14428 | 38128 ft | 451 kts | 315° |
| 2026-05-05 09:45 | 29.16131 | 132.10250 | 38125 ft | 450 kts | 315° |
| 2026-05-05 09:45 | 29.21216 | 132.06071 | 38127 ft | 449 kts | 315° |
| 2026-05-05 09:46 | 29.26294 | 132.01891 | 38133 ft | 449 kts | 315° |
| 2026-05-05 09:46 | 29.31359 | 131.97717 | 38140 ft | 449 kts | 314° |
| 2026-05-05 09:47 | 29.36433 | 131.93530 | 38128 ft | 449 kts | 314° |
| 2026-05-05 09:47 | 29.41473 | 131.89363 | 38127 ft | 449 kts | 314° |
| 2026-05-05 09:48 | 29.46550 | 131.85152 | 38126 ft | 450 kts | 314° |
| 2026-05-05 09:48 | 29.51622 | 131.80938 | 38125 ft | 450 kts | 314° |
| 2026-05-05 09:49 | 29.56703 | 131.76714 | 38142 ft | 451 kts | 314° |
| 2026-05-05 09:49 | 29.61885 | 131.72598 | 38137 ft | 455 kts | 316° |
| 2026-05-05 09:50 | 29.67208 | 131.68691 | 38124 ft | 457 kts | 317° |
| 2026-05-05 09:50 | 29.72577 | 131.64762 | 38126 ft | 457 kts | 317° |
| 2026-05-05 09:51 | 29.77928 | 131.60809 | 38127 ft | 457 kts | 317° |
| 2026-05-05 09:51 | 29.83280 | 131.56837 | 38127 ft | 457 kts | 317° |
| 2026-05-05 09:52 | 29.88599 | 131.52884 | 38134 ft | 458 kts | 316° |
| 2026-05-05 09:52 | 29.93960 | 131.48898 | 38125 ft | 458 kts | 316° |
| 2026-05-05 09:53 | 29.99019 | 131.44590 | 38135 ft | 442 kts | 306° |
| 2026-05-05 09:53 | 30.03032 | 131.39364 | 38122 ft | 428 kts | 295° |
| 2026-05-05 09:54 | 30.06205 | 131.33622 | 38148 ft | 424 kts | 292° |
| 2026-05-05 09:54 | 30.09319 | 131.27823 | 38143 ft | 425 kts | 292° |
| 2026-05-05 09:55 | 30.12429 | 131.22057 | 38146 ft | 426 kts | 293° |
| 2026-05-05 09:55 | 30.15578 | 131.16247 | 38124 ft | 427 kts | 293° |
| 2026-05-05 09:56 | 30.18739 | 131.10421 | 38135 ft | 428 kts | 293° |
| 2026-05-05 09:56 | 30.21898 | 131.04593 | 38127 ft | 428 kts | 293° |
| 2026-05-05 09:57 | 30.25056 | 130.98758 | 38127 ft | 428 kts | 292° |
| 2026-05-05 09:57 | 30.28191 | 130.92957 | 38127 ft | 427 kts | 292° |
| 2026-05-05 09:58 | 30.31338 | 130.87124 | 38132 ft | 427 kts | 292° |
| 2026-05-05 09:58 | 30.34482 | 130.81289 | 38137 ft | 426 kts | 292° |
| 2026-05-05 09:59 | 30.37614 | 130.75468 | 38131 ft | 425 kts | 292° |
| 2026-05-05 09:59 | 30.40737 | 130.69653 | 38130 ft | 425 kts | 292° |
| 2026-05-05 10:00 | 30.43853 | 130.63844 | 38135 ft | 424 kts | 292° |
| 2026-05-05 10:00 | 30.46941 | 130.58078 | 38136 ft | 423 kts | 292° |
| 2026-05-05 10:01 | 30.50042 | 130.52279 | 38133 ft | 423 kts | 292° |
| 2026-05-05 10:01 | 30.53144 | 130.46469 | 38153 ft | 423 kts | 292° |
| 2026-05-05 10:02 | 30.56243 | 130.40656 | 38139 ft | 423 kts | 292° |
| 2026-05-05 10:02 | 30.59344 | 130.34832 | 38137 ft | 424 kts | 292° |
| 2026-05-05 10:03 | 30.62421 | 130.29045 | 38136 ft | 424 kts | 292° |
| 2026-05-05 10:03 | 30.65518 | 130.23210 | 38145 ft | 425 kts | 292° |
| 2026-05-05 10:04 | 30.68615 | 130.17367 | 38143 ft | 425 kts | 292° |
| 2026-05-05 10:04 | 30.71714 | 130.11514 | 38131 ft | 425 kts | 292° |
| 2026-05-05 10:05 | 30.74287 | 130.06646 | 38137 ft | 425 kts | 292° |
| 2026-05-05 10:05 | 30.77899 | 129.99802 | 38142 ft | 425 kts | 291° |
| 2026-05-05 10:06 | 30.80468 | 129.94928 | 38137 ft | 425 kts | 291° |
| 2026-05-05 10:06 | 30.83555 | 129.89061 | 38129 ft | 425 kts | 291° |
| 2026-05-05 10:07 | 30.86620 | 129.83231 | 38134 ft | 424 kts | 291° |
| 2026-05-05 10:07 | 30.89712 | 129.77338 | 38138 ft | 424 kts | 291° |
| 2026-05-05 10:08 | 30.92764 | 129.71513 | 38136 ft | 423 kts | 291° |
| 2026-05-05 10:08 | 30.95829 | 129.65655 | 38139 ft | 423 kts | 291° |
| 2026-05-05 10:09 | 30.98886 | 129.59802 | 38135 ft | 422 kts | 291° |
| 2026-05-05 10:09 | 31.01938 | 129.53949 | 38142 ft | 422 kts | 291° |
| 2026-05-05 10:10 | 31.04989 | 129.48090 | 38175 ft | 423 kts | 291° |
| 2026-05-05 10:10 | 31.08041 | 129.42218 | 38146 ft | 424 kts | 291° |
| 2026-05-05 10:11 | 31.11094 | 129.36337 | 38141 ft | 424 kts | 291° |
| 2026-05-05 10:11 | 31.14137 | 129.30468 | 38147 ft | 425 kts | 291° |
| 2026-05-05 10:12 | 31.17202 | 129.24548 | 38135 ft | 426 kts | 291° |
| 2026-05-05 10:12 | 31.20262 | 129.18628 | 38133 ft | 426 kts | 291° |
| 2026-05-05 10:13 | 31.23320 | 129.12702 | 38147 ft | 426 kts | 291° |
| 2026-05-05 10:13 | 31.26375 | 129.06773 | 38152 ft | 426 kts | 291° |
| 2026-05-05 10:14 | 31.29404 | 129.00887 | 38140 ft | 425 kts | 291° |
| 2026-05-05 10:14 | 31.32449 | 128.94960 | 38141 ft | 424 kts | 291° |
| 2026-05-05 10:15 | 31.35486 | 128.89039 | 38184 ft | 423 kts | 291° |
| 2026-05-05 10:15 | 31.38515 | 128.83125 | 38153 ft | 423 kts | 290° |
| 2026-05-05 10:16 | 31.41532 | 128.77225 | 38138 ft | 422 kts | 290° |
| 2026-05-05 10:16 | 31.44521 | 128.71370 | 38143 ft | 420 kts | 290° |
| 2026-05-05 10:17 | 31.47515 | 128.65496 | 38156 ft | 420 kts | 290° |
| 2026-05-05 10:17 | 31.50509 | 128.59611 | 38154 ft | 420 kts | 290° |
| 2026-05-05 10:18 | 31.53496 | 128.53733 | 38145 ft | 420 kts | 290° |
| 2026-05-05 10:18 | 31.56484 | 128.47844 | 38144 ft | 420 kts | 290° |
| 2026-05-05 10:19 | 31.59456 | 128.41977 | 38146 ft | 420 kts | 290° |
| 2026-05-05 10:19 | 31.62441 | 128.36075 | 38141 ft | 420 kts | 290° |
| 2026-05-05 10:20 | 31.65426 | 128.30164 | 38137 ft | 421 kts | 290° |
| 2026-05-05 10:20 | 31.68389 | 128.24287 | 38137 ft | 421 kts | 290° |
| 2026-05-05 10:21 | 31.71369 | 128.18369 | 38164 ft | 421 kts | 290° |
| 2026-05-05 10:21 | 31.74356 | 128.12426 | 38148 ft | 422 kts | 290° |
| 2026-05-05 10:22 | 31.77343 | 128.06476 | 38159 ft | 423 kts | 290° |
| 2026-05-05 10:22 | 31.80332 | 128.00511 | 38141 ft | 423 kts | 290° |
| 2026-05-05 10:23 | 31.83319 | 127.94541 | 38162 ft | 424 kts | 290° |
| 2026-05-05 10:23 | 31.86308 | 127.88555 | 38143 ft | 425 kts | 290° |
| 2026-05-05 10:24 | 31.89302 | 127.82554 | 38140 ft | 425 kts | 290° |
| 2026-05-05 10:24 | 31.92269 | 127.76596 | 38140 ft | 425 kts | 290° |
| 2026-05-05 10:25 | 31.95262 | 127.70576 | 38160 ft | 425 kts | 290° |
| 2026-05-05 10:25 | 31.98249 | 127.64557 | 38142 ft | 425 kts | 290° |
| 2026-05-05 10:26 | 32.01236 | 127.58529 | 38136 ft | 426 kts | 290° |
| 2026-05-05 10:26 | 32.04200 | 127.52538 | 38137 ft | 426 kts | 290° |
| 2026-05-05 10:27 | 32.07178 | 127.46509 | 38162 ft | 426 kts | 290° |
| 2026-05-05 10:27 | 32.10162 | 127.40457 | 38142 ft | 427 kts | 290° |
| 2026-05-05 10:28 | 32.13145 | 127.34399 | 38135 ft | 427 kts | 290° |
| 2026-05-05 10:28 | 32.16122 | 127.28331 | 38137 ft | 427 kts | 290° |
| 2026-05-05 10:29 | 32.19097 | 127.22251 | 38163 ft | 428 kts | 290° |
| 2026-05-05 10:29 | 32.22076 | 127.16154 | 38145 ft | 428 kts | 290° |
| 2026-05-05 10:30 | 32.25054 | 127.10051 | 38136 ft | 428 kts | 290° |
| 2026-05-05 10:30 | 32.26212 | 127.06939 | 38135 ft | 412 kts | 277° |
| 2026-05-05 10:30 | 32.26730 | 127.03656 | 38150 ft | 403 kts | 270° |
| 2026-05-05 10:31 | 32.26585 | 126.97064 | 38140 ft | 402 kts | 254° |
| 2026-05-05 10:31 | 32.25119 | 126.90625 | 38146 ft | 409 kts | 253° |
| 2026-05-05 10:32 | 32.23628 | 126.84107 | 38144 ft | 412 kts | 253° |
| 2026-05-05 10:32 | 32.22184 | 126.77615 | 38126 ft | 403 kts | 253° |
| 2026-05-05 10:33 | 32.20783 | 126.71280 | 38135 ft | 400 kts | 253° |
| 2026-05-05 10:33 | 32.19370 | 126.64915 | 38137 ft | 400 kts | 253° |
| 2026-05-05 10:34 | 32.17986 | 126.58534 | 38136 ft | 401 kts | 253° |
| 2026-05-05 10:34 | 32.16611 | 126.52139 | 38132 ft | 402 kts | 253° |
| 2026-05-05 10:35 | 32.15233 | 126.45762 | 38140 ft | 405 kts | 253° |
| 2026-05-05 10:35 | 32.13832 | 126.39306 | 38137 ft | 407 kts | 253° |
| 2026-05-05 10:36 | 32.12420 | 126.32818 | 38124 ft | 407 kts | 253° |
| 2026-05-05 10:36 | 32.11016 | 126.26385 | 38130 ft | 407 kts | 253° |
| 2026-05-05 10:37 | 32.09597 | 126.19904 | 38130 ft | 408 kts | 253° |
| 2026-05-05 10:37 | 32.08173 | 126.13407 | 38130 ft | 409 kts | 253° |
| 2026-05-05 10:38 | 32.06750 | 126.06937 | 38134 ft | 410 kts | 253° |
| 2026-05-05 10:38 | 32.05337 | 126.00414 | 38131 ft | 411 kts | 254° |
| 2026-05-05 10:39 | 32.03944 | 125.93873 | 38114 ft | 411 kts | 254° |
| 2026-05-05 10:39 | 32.02545 | 125.87338 | 38123 ft | 410 kts | 254° |
| 2026-05-05 10:40 | 32.01147 | 125.80839 | 38124 ft | 409 kts | 254° |
| 2026-05-05 10:40 | 31.99743 | 125.74391 | 38135 ft | 408 kts | 253° |
| 2026-05-05 10:41 | 31.98301 | 125.67916 | 38127 ft | 408 kts | 253° |
| 2026-05-05 10:41 | 31.96856 | 125.61444 | 38129 ft | 408 kts | 253° |
| 2026-05-05 10:42 | 31.94688 | 125.51740 | 38125 ft | 408 kts | 253° |
| 2026-05-05 10:43 | 31.93240 | 125.45277 | 38123 ft | 408 kts | 253° |
| 2026-05-05 10:43 | 31.91796 | 125.38844 | 38126 ft | 409 kts | 253° |
| 2026-05-05 10:44 | 31.90337 | 125.32360 | 38128 ft | 410 kts | 253° |
| 2026-05-05 10:44 | 31.88872 | 125.25869 | 38124 ft | 410 kts | 253° |
| 2026-05-05 10:45 | 31.87400 | 125.19361 | 38126 ft | 412 kts | 253° |
| 2026-05-05 10:45 | 31.85920 | 125.12834 | 38090 ft | 413 kts | 253° |
| 2026-05-05 10:46 | 31.84447 | 125.06351 | 38111 ft | 413 kts | 253° |
| 2026-05-05 10:46 | 31.82963 | 124.99839 | 38118 ft | 412 kts | 253° |
| 2026-05-05 10:47 | 31.81527 | 124.93293 | 38117 ft | 413 kts | 254° |
| 2026-05-05 10:47 | 31.80120 | 124.86739 | 38117 ft | 414 kts | 254° |
| 2026-05-05 10:48 | 31.78702 | 124.80171 | 38112 ft | 414 kts | 254° |
| 2026-05-05 10:48 | 31.77286 | 124.73652 | 38110 ft | 414 kts | 254° |
| 2026-05-05 10:49 | 31.75853 | 124.67084 | 38108 ft | 415 kts | 254° |
| 2026-05-05 10:49 | 31.74415 | 124.60513 | 38109 ft | 415 kts | 254° |
| 2026-05-05 10:50 | 31.72971 | 124.53932 | 38115 ft | 416 kts | 254° |
| 2026-05-05 10:50 | 31.71534 | 124.47397 | 38125 ft | 416 kts | 254° |
| 2026-05-05 10:51 | 31.70081 | 124.40805 | 38108 ft | 417 kts | 254° |
| 2026-05-05 10:51 | 31.68622 | 124.34205 | 38107 ft | 418 kts | 254° |
| 2026-05-05 10:52 | 31.67156 | 124.27593 | 38069 ft | 418 kts | 254° |
| 2026-05-05 10:52 | 31.65698 | 124.21031 | 38103 ft | 417 kts | 254° |
| 2026-05-05 10:53 | 31.64228 | 124.14434 | 38101 ft | 418 kts | 254° |
| 2026-05-05 10:53 | 31.62753 | 124.07827 | 38094 ft | 418 kts | 254° |
| 2026-05-05 10:54 | 31.61275 | 124.01228 | 38095 ft | 418 kts | 254° |
| 2026-05-05 10:54 | 31.59821 | 123.94656 | 38119 ft | 418 kts | 254° |
| 2026-05-05 10:55 | 31.58612 | 123.89104 | 38093 ft | 420 kts | 254° |
| 2026-05-05 10:55 | 31.57162 | 123.82461 | 38092 ft | 421 kts | 254° |
| 2026-05-05 10:56 | 31.55699 | 123.75792 | 37574 ft | 430 kts | 254° |
| 2026-05-05 10:56 | 31.54961 | 123.72441 | 36968 ft | 423 kts | 254° |
| 2026-05-05 10:56 | 31.54232 | 123.69125 | 36119 ft | 414 kts | 254° |
| 2026-05-05 10:56 | 31.53511 | 123.65858 | 35309 ft | 415 kts | 254° |
| 2026-05-05 10:57 | 31.52784 | 123.62569 | 34440 ft | 419 kts | 254° |
| 2026-05-05 10:57 | 31.52047 | 123.59239 | 33444 ft | 423 kts | 254° |
| 2026-05-05 10:57 | 31.51304 | 123.55884 | 32443 ft | 426 kts | 254° |
| 2026-05-05 10:57 | 31.50556 | 123.52511 | 31454 ft | 429 kts | 254° |
| 2026-05-05 10:58 | 31.49811 | 123.49139 | 30740 ft | 427 kts | 255° |
| 2026-05-05 10:58 | 31.49130 | 123.45760 | 29981 ft | 425 kts | 256° |
| 2026-05-05 10:58 | 31.48496 | 123.42381 | 29147 ft | 423 kts | 257° |
| 2026-05-05 10:58 | 31.47880 | 123.39022 | 28397 ft | 419 kts | 257° |
| 2026-05-05 10:59 | 31.47268 | 123.35699 | 27719 ft | 415 kts | 257° |
| 2026-05-05 10:59 | 31.46656 | 123.32412 | 27042 ft | 412 kts | 257° |
| 2026-05-05 10:59 | 31.46049 | 123.29185 | 26390 ft | 409 kts | 257° |
| 2026-05-05 10:59 | 31.45433 | 123.25938 | 25746 ft | 407 kts | 257° |
| 2026-05-05 11:00 | 31.44818 | 123.22709 | 25112 ft | 405 kts | 257° |
| 2026-05-05 11:00 | 31.44204 | 123.19498 | 24488 ft | 403 kts | 257° |
| 2026-05-05 11:00 | 31.43590 | 123.16289 | 23841 ft | 403 kts | 257° |
| 2026-05-05 11:00 | 31.42976 | 123.13087 | 23126 ft | 403 kts | 257° |
| 2026-05-05 11:01 | 31.42363 | 123.09894 | 22452 ft | 401 kts | 257° |
| 2026-05-05 11:01 | 31.41752 | 123.06716 | 21815 ft | 399 kts | 258° |
| 2026-05-05 11:01 | 31.41142 | 123.03547 | 21175 ft | 397 kts | 258° |
| 2026-05-05 11:01 | 31.40536 | 123.00400 | 20551 ft | 395 kts | 258° |
| 2026-05-05 11:02 | 31.39931 | 122.97265 | 19932 ft | 393 kts | 258° |
| 2026-05-05 11:02 | 31.39336 | 122.94185 | 19336 ft | 392 kts | 258° |
| 2026-05-05 11:02 | 31.38735 | 122.91076 | 18729 ft | 391 kts | 258° |
| 2026-05-05 11:02 | 31.38133 | 122.87971 | 18062 ft | 391 kts | 258° |
| 2026-05-05 11:03 | 31.37533 | 122.84870 | 17398 ft | 390 kts | 258° |
| 2026-05-05 11:03 | 31.36933 | 122.81783 | 16760 ft | 388 kts | 258° |
| 2026-05-05 11:03 | 31.36332 | 122.78705 | 16149 ft | 386 kts | 257° |
| 2026-05-05 11:03 | 31.35474 | 122.75744 | 15525 ft | 384 kts | 246° |
| 2026-05-05 11:04 | 31.34195 | 122.73005 | 14953 ft | 383 kts | 242° |
| 2026-05-05 11:04 | 31.32863 | 122.70305 | 14341 ft | 382 kts | 242° |
| 2026-05-05 11:04 | 31.31536 | 122.67607 | 13715 ft | 382 kts | 242° |
| 2026-05-05 11:04 | 31.30224 | 122.64900 | 13054 ft | 382 kts | 242° |
| 2026-05-05 11:05 | 31.28928 | 122.62194 | 12425 ft | 381 kts | 242° |
| 2026-05-05 11:05 | 31.27642 | 122.59490 | 11911 ft | 377 kts | 242° |
| 2026-05-05 11:05 | 31.26378 | 122.56816 | 11254 ft | 372 kts | 242° |
| 2026-05-05 11:05 | 31.25160 | 122.54239 | 10908 ft | 348 kts | 242° |
| 2026-05-05 11:06 | 31.24049 | 122.51885 | 10748 ft | 324 kts | 242° |
| 2026-05-05 11:06 | 31.22995 | 122.49652 | 10584 ft | 303 kts | 242° |
| 2026-05-05 11:06 | 31.21999 | 122.47548 | 10488 ft | 294 kts | 242° |
| 2026-05-05 11:06 | 31.21008 | 122.45460 | 10387 ft | 294 kts | 242° |
| 2026-05-05 11:07 | 31.20017 | 122.43373 | 10247 ft | 294 kts | 242° |
| 2026-05-05 11:07 | 31.19039 | 122.41308 | 10135 ft | 286 kts | 242° |
| 2026-05-05 11:07 | 31.18080 | 122.39272 | 9899 ft | 287 kts | 242° |
| 2026-05-05 11:07 | 31.17095 | 122.37178 | 9633 ft | 294 kts | 242° |
| 2026-05-05 11:08 | 31.16114 | 122.35095 | 9338 ft | 291 kts | 242° |
| 2026-05-05 11:08 | 31.15146 | 122.33047 | 8887 ft | 285 kts | 242° |
| 2026-05-05 11:08 | 31.14200 | 122.31049 | 8368 ft | 274 kts | 241° |
| 2026-05-05 11:08 | 31.13301 | 122.29151 | 8119 ft | 263 kts | 241° |
| 2026-05-05 11:09 | 31.12423 | 122.27300 | 7838 ft | 258 kts | 241° |
| 2026-05-05 11:09 | 31.11571 | 122.25507 | 7531 ft | 254 kts | 241° |
| 2026-05-05 11:09 | 31.10712 | 122.23699 | 7241 ft | 256 kts | 240° |
| 2026-05-05 11:09 | 31.09864 | 122.21876 | 7079 ft | 252 kts | 245° |
| 2026-05-05 11:10 | 31.09560 | 122.19914 | 6942 ft | 244 kts | 277° |
| 2026-05-05 11:10 | 31.10131 | 122.18102 | 6956 ft | 243 kts | 301° |
| 2026-05-05 11:10 | 31.11253 | 122.16554 | 6939 ft | 256 kts | 317° |
| 2026-05-05 11:10 | 31.12625 | 122.15195 | 6943 ft | 260 kts | 320° |
| 2026-05-05 11:11 | 31.14053 | 122.13881 | 6636 ft | 262 kts | 320° |
| 2026-05-05 11:11 | 31.15415 | 122.12552 | 6434 ft | 258 kts | 319° |
| 2026-05-05 11:11 | 31.16786 | 122.11201 | 6313 ft | 258 kts | 319° |
| 2026-05-05 11:11 | 31.18157 | 122.09855 | 6202 ft | 257 kts | 319° |
| 2026-05-05 11:12 | 31.19526 | 122.08514 | 6066 ft | 256 kts | 319° |
| 2026-05-05 11:12 | 31.20889 | 122.07181 | 5963 ft | 255 kts | 319° |
| 2026-05-05 11:12 | 31.22249 | 122.05853 | 5863 ft | 254 kts | 319° |
| 2026-05-05 11:12 | 31.23610 | 122.04525 | 5754 ft | 254 kts | 319° |
| 2026-05-05 11:13 | 31.24967 | 122.03201 | 5643 ft | 254 kts | 319° |
| 2026-05-05 11:13 | 31.26329 | 122.01872 | 5542 ft | 255 kts | 319° |
| 2026-05-05 11:13 | 31.27693 | 122.00541 | 5445 ft | 256 kts | 319° |
| 2026-05-05 11:13 | 31.29060 | 121.99207 | 5338 ft | 257 kts | 319° |
| 2026-05-05 11:14 | 31.30433 | 121.97867 | 5234 ft | 258 kts | 319° |
| 2026-05-05 11:14 | 31.31808 | 121.96524 | 5118 ft | 258 kts | 319° |
| 2026-05-05 11:14 | 31.33170 | 121.95193 | 4976 ft | 258 kts | 319° |
| 2026-05-05 11:14 | 31.34552 | 121.93842 | 4879 ft | 259 kts | 319° |
| 2026-05-05 11:15 | 31.35931 | 121.92495 | 4788 ft | 259 kts | 318° |
| 2026-05-05 11:15 | 31.37313 | 121.91143 | 4664 ft | 259 kts | 319° |
| 2026-05-05 11:15 | 31.38690 | 121.89795 | 4549 ft | 258 kts | 319° |
| 2026-05-05 11:15 | 31.40062 | 121.88452 | 4447 ft | 256 kts | 319° |
| 2026-05-05 11:16 | 31.41427 | 121.87116 | 4323 ft | 255 kts | 319° |
| 2026-05-05 11:16 | 31.42786 | 121.85786 | 4235 ft | 253 kts | 318° |
| 2026-05-05 11:16 | 31.44041 | 121.84437 | 4085 ft | 235 kts | 304° |
| 2026-05-05 11:16 | 31.44609 | 121.82710 | 4032 ft | 231 kts | 272° |
| 2026-05-05 11:17 | 31.44529 | 121.80853 | 3920 ft | 227 kts | 257° |
| 2026-05-05 11:17 | 31.44199 | 121.79067 | 3832 ft | 222 kts | 253° |
| 2026-05-05 11:17 | 31.43855 | 121.77324 | 3744 ft | 218 kts | 253° |
| 2026-05-05 11:17 | 31.43517 | 121.75600 | 3658 ft | 217 kts | 253° |
| 2026-05-05 11:18 | 31.43188 | 121.73903 | 3556 ft | 217 kts | 253° |
| 2026-05-05 11:18 | 31.42858 | 121.72182 | 3486 ft | 216 kts | 253° |
| 2026-05-05 11:18 | 31.42252 | 121.70624 | 3368 ft | 211 kts | 224° |
| 2026-05-05 11:18 | 31.41060 | 121.69772 | 3293 ft | 196 kts | 192° |
| 2026-05-05 11:19 | 31.39769 | 121.69675 | 3201 ft | 182 kts | 169° |
| 2026-05-05 11:19 | 31.38547 | 121.70107 | 3203 ft | 184 kts | 163° |
| 2026-05-05 11:19 | 31.37335 | 121.70565 | 3058 ft | 181 kts | 163° |
| 2026-05-05 11:19 | 31.36145 | 121.71015 | 2996 ft | 177 kts | 164° |
| 2026-05-05 11:20 | 31.34975 | 121.71460 | 2977 ft | 176 kts | 163° |
| 2026-05-05 11:20 | 31.33798 | 121.71907 | 2980 ft | 179 kts | 163° |
| 2026-05-05 11:20 | 31.32610 | 121.72358 | 2978 ft | 179 kts | 163° |
| 2026-05-05 11:20 | 31.31422 | 121.72803 | 2970 ft | 178 kts | 163° |
| 2026-05-05 11:21 | 31.30286 | 121.73229 | 2836 ft | 173 kts | 163° |
| 2026-05-05 11:21 | 31.29159 | 121.73655 | 2624 ft | 165 kts | 163° |
| 2026-05-05 11:21 | 31.28100 | 121.74058 | 2410 ft | 154 kts | 163° |
| 2026-05-05 11:21 | 31.27111 | 121.74433 | 2250 ft | 147 kts | 164° |
| 2026-05-05 11:22 | 31.26155 | 121.74797 | 2044 ft | 140 kts | 164° |
| 2026-05-05 11:22 | 31.25240 | 121.75144 | 1852 ft | 137 kts | 165° |
| 2026-05-05 11:22 | 31.24347 | 121.75483 | 1663 ft | 133 kts | 165° |
| 2026-05-05 11:22 | 31.23467 | 121.75816 | 1475 ft | 130 kts | 163° |
| 2026-05-05 11:23 | 31.22615 | 121.76139 | 1306 ft | 128 kts | 162° |
| 2026-05-05 11:23 | 31.21762 | 121.76464 | 1143 ft | 129 kts | 165° |
| 2026-05-05 11:23 | 31.20894 | 121.76792 | 971 ft | 132 kts | 165° |
| 2026-05-05 11:23 | 31.20027 | 121.77115 | 815 ft | 132 kts | 163° |
| 2026-05-05 11:24 | 31.19152 | 121.77462 | 653 ft | 132 kts | 162° |
| 2026-05-05 11:24 | 31.18270 | 121.77789 | 509 ft | 135 kts | 162° |
| 2026-05-05 11:24 | 31.17363 | 121.78138 | 366 ft | 139 kts | 162° |
| 2026-05-05 11:24 | 31.16445 | 121.78483 | 148 ft | 138 kts | 162° |
| 2026-05-05 11:25 | 31.15521 | 121.78830 | 29 ft | 137 kts | 163° |
| 2026-05-05 11:25 | 31.14738 | 121.79122 | 29 ft | 93 kts | 162° |
| 2026-05-05 11:25 | 31.14299 | 121.79288 | 29 ft | 40 kts | 161° |
| 2026-05-05 11:25 | 31.14151 | 121.79388 | 30 ft | 23 kts | 134° |
| 2026-05-05 11:26 | 31.14097 | 121.79454 | 29 ft | 0 kts | 131° |
| 2026-05-05 11:27 | 31.14094 | 121.79457 | 28 ft | 3 kts | 131° |
| 2026-05-05 11:27 | 31.14056 | 121.79506 | 26 ft | 10 kts | 132° |
| 2026-05-05 11:28 | 31.14020 | 121.79572 | 27 ft | 10 kts | 98° |
| 2026-05-05 11:28 | 31.14034 | 121.79652 | 28 ft | 10 kts | 71° |
| 2026-05-05 11:28 | 31.14086 | 121.79693 | 28 ft | 11 kts | 354° |
| 2026-05-05 11:28 | 31.14159 | 121.79669 | 27 ft | 11 kts | 341° |
| 2026-05-05 11:29 | 31.14238 | 121.79638 | 27 ft | 12 kts | 342° |
| 2026-05-05 11:29 | 31.14324 | 121.79607 | 26 ft | 13 kts | 343° |
| 2026-05-05 11:29 | 31.14420 | 121.79570 | 27 ft | 17 kts | 341° |
| 2026-05-05 11:29 | 31.14542 | 121.79524 | 27 ft | 20 kts | 342° |
| 2026-05-05 11:30 | 31.14673 | 121.79475 | 28 ft | 20 kts | 342° |
| 2026-05-05 11:30 | 31.14804 | 121.79425 | 28 ft | 20 kts | 342° |
| 2026-05-05 11:30 | 31.14838 | 121.79413 | 26 ft | 20 kts | 342° |
| 2026-05-05 11:31 | 31.14876 | 121.79398 | 27 ft | 20 kts | 342° |
| 2026-05-05 11:31 | 31.15007 | 121.79349 | 28 ft | 20 kts | 342° |
| 2026-05-05 11:32 | 31.15138 | 121.79300 | 27 ft | 20 kts | 342° |
| 2026-05-05 11:32 | 31.15269 | 121.79250 | 27 ft | 20 kts | 342° |
| 2026-05-05 11:32 | 31.15400 | 121.79201 | 27 ft | 20 kts | 342° |
| 2026-05-05 11:32 | 31.15530 | 121.79150 | 27 ft | 20 kts | 342° |
| 2026-05-05 11:33 | 31.15662 | 121.79102 | 27 ft | 20 kts | 342° |
| 2026-05-05 11:33 | 31.15771 | 121.79061 | 27 ft | 10 kts | 341° |
| 2026-05-05 11:33 | 31.15824 | 121.79041 | 27 ft | 8 kts | 345° |
| 2026-05-05 11:33 | 31.15864 | 121.79079 | 27 ft | 7 kts | 58° |
| 2026-05-05 11:34 | 31.15873 | 121.79111 | 27 ft | 3 kts | 71° |
| 2026-05-05 11:34 | 31.15879 | 121.79132 | 27 ft | 2 kts | 72° |
| 2026-05-05 11:34 | 31.15881 | 121.79136 | 27 ft | 0 kts | 72° |